<?xml version="1.0" encoding="UTF-8" standalone="no" ?>
<gpx xmlns="http://www.topografix.com/GPX/1/1" xmlns:xsi="http://www.w3.org/2001/XMLSchema-instance" xsi:schemaLocation="http://www.topografix.com/GPX/1/1 http://www.topografix.com/GPX/1/1/gpx.xsd" version="1.1" creator="VisuGPX - https://www.visugpx.com">
  <metadata>
    <name>Randonnée nordique</name>
    <desc><![CDATA[Tour des Ayeres]]></desc>
  </metadata>
  <trk>
    <name><![CDATA[Tour des Ayeres 2]]></name>
    <trkseg>
      <trkpt lat="45.95091" lon="6.73889">
        <ele>1408</ele>
        <time>2014-01-17T11:54:08Z</time>
      </trkpt>
      <trkpt lat="45.95091" lon="6.73889">
        <ele>1408</ele>
        <time>2014-01-17T11:54:09Z</time>
      </trkpt>
      <trkpt lat="45.95091" lon="6.73889">
        <ele>1404</ele>
        <time>2014-01-17T11:54:12Z</time>
      </trkpt>
      <trkpt lat="45.95091" lon="6.73889">
        <ele>1399</ele>
        <time>2014-01-17T11:54:15Z</time>
      </trkpt>
      <trkpt lat="45.95091" lon="6.73889">
        <ele>1395</ele>
        <time>2014-01-17T11:54:17Z</time>
      </trkpt>
      <trkpt lat="45.95092" lon="6.73889">
        <ele>1393</ele>
        <time>2014-01-17T11:54:19Z</time>
      </trkpt>
      <trkpt lat="45.95092" lon="6.73889">
        <ele>1389</ele>
        <time>2014-01-17T11:54:21Z</time>
      </trkpt>
      <trkpt lat="45.95092" lon="6.73889">
        <ele>1385</ele>
        <time>2014-01-17T11:54:24Z</time>
      </trkpt>
      <trkpt lat="45.95092" lon="6.73889">
        <ele>1383</ele>
        <time>2014-01-17T11:54:27Z</time>
      </trkpt>
      <trkpt lat="45.9509" lon="6.73889">
        <ele>1379</ele>
        <time>2014-01-17T11:54:30Z</time>
      </trkpt>
      <trkpt lat="45.9509" lon="6.73889">
        <ele>1377</ele>
        <time>2014-01-17T11:54:33Z</time>
      </trkpt>
      <trkpt lat="45.9509" lon="6.7389">
        <ele>1373</ele>
        <time>2014-01-17T11:54:37Z</time>
      </trkpt>
      <trkpt lat="45.9509" lon="6.7389">
        <ele>1371</ele>
        <time>2014-01-17T11:54:41Z</time>
      </trkpt>
      <trkpt lat="45.9509" lon="6.7389">
        <ele>1370</ele>
        <time>2014-01-17T11:54:44Z</time>
      </trkpt>
      <trkpt lat="45.9509" lon="6.73891">
        <ele>1367</ele>
        <time>2014-01-17T11:54:47Z</time>
      </trkpt>
      <trkpt lat="45.95091" lon="6.73891">
        <ele>1366</ele>
        <time>2014-01-17T11:54:48Z</time>
      </trkpt>
      <trkpt lat="45.95096" lon="6.73894">
        <ele>1363</ele>
        <time>2014-01-17T11:54:57Z</time>
      </trkpt>
      <trkpt lat="45.95096" lon="6.73895">
        <ele>1362</ele>
        <time>2014-01-17T11:54:59Z</time>
      </trkpt>
      <trkpt lat="45.95096" lon="6.73893">
        <ele>1359</ele>
        <time>2014-01-17T11:55:08Z</time>
      </trkpt>
      <trkpt lat="45.951" lon="6.73914">
        <ele>1357</ele>
        <time>2014-01-17T11:55:21Z</time>
      </trkpt>
      <trkpt lat="45.95099" lon="6.7393">
        <ele>1356</ele>
        <time>2014-01-17T11:55:31Z</time>
      </trkpt>
      <trkpt lat="45.95095" lon="6.73951">
        <ele>1357</ele>
        <time>2014-01-17T11:55:44Z</time>
      </trkpt>
      <trkpt lat="45.95091" lon="6.73978">
        <ele>1358</ele>
        <time>2014-01-17T11:56:00Z</time>
      </trkpt>
      <trkpt lat="45.9509" lon="6.73988">
        <ele>1358</ele>
        <time>2014-01-17T11:56:06Z</time>
      </trkpt>
      <trkpt lat="45.95091" lon="6.7399">
        <ele>1359</ele>
        <time>2014-01-17T11:56:25Z</time>
      </trkpt>
      <trkpt lat="45.95091" lon="6.73992">
        <ele>1359</ele>
        <time>2014-01-17T11:56:48Z</time>
      </trkpt>
      <trkpt lat="45.9509" lon="6.73993">
        <ele>1351</ele>
        <time>2014-01-17T11:57:02Z</time>
      </trkpt>
      <trkpt lat="45.9509" lon="6.73993">
        <ele>1360</ele>
        <time>2014-01-17T11:57:03Z</time>
      </trkpt>
      <trkpt lat="45.9509" lon="6.73993">
        <ele>1360</ele>
        <time>2014-01-17T11:57:04Z</time>
      </trkpt>
      <trkpt lat="45.95091" lon="6.73993">
        <ele>1367</ele>
        <time>2014-01-17T11:57:06Z</time>
      </trkpt>
      <trkpt lat="45.95091" lon="6.73993">
        <ele>1361</ele>
        <time>2014-01-17T11:57:07Z</time>
      </trkpt>
      <trkpt lat="45.9509" lon="6.73993">
        <ele>1360</ele>
        <time>2014-01-17T11:57:09Z</time>
      </trkpt>
      <trkpt lat="45.9509" lon="6.73993">
        <ele>1363</ele>
        <time>2014-01-17T11:57:14Z</time>
      </trkpt>
      <trkpt lat="45.95091" lon="6.73993">
        <ele>1360</ele>
        <time>2014-01-17T11:57:16Z</time>
      </trkpt>
      <trkpt lat="45.95091" lon="6.73992">
        <ele>1363</ele>
        <time>2014-01-17T11:57:34Z</time>
      </trkpt>
      <trkpt lat="45.95091" lon="6.73992">
        <ele>1360</ele>
        <time>2014-01-17T11:57:37Z</time>
      </trkpt>
      <trkpt lat="45.95092" lon="6.73988">
        <ele>1360</ele>
        <time>2014-01-17T11:57:55Z</time>
      </trkpt>
      <trkpt lat="45.95092" lon="6.73988">
        <ele>1355</ele>
        <time>2014-01-17T11:58:04Z</time>
      </trkpt>
      <trkpt lat="45.95092" lon="6.73988">
        <ele>1359</ele>
        <time>2014-01-17T11:58:05Z</time>
      </trkpt>
      <trkpt lat="45.95092" lon="6.73988">
        <ele>1363</ele>
        <time>2014-01-17T11:58:06Z</time>
      </trkpt>
      <trkpt lat="45.95092" lon="6.73989">
        <ele>1361</ele>
        <time>2014-01-17T11:58:07Z</time>
      </trkpt>
      <trkpt lat="45.95092" lon="6.74012">
        <ele>1360</ele>
        <time>2014-01-17T11:58:20Z</time>
      </trkpt>
      <trkpt lat="45.95092" lon="6.74031">
        <ele>1362</ele>
        <time>2014-01-17T11:58:33Z</time>
      </trkpt>
      <trkpt lat="45.95089" lon="6.74054">
        <ele>1363</ele>
        <time>2014-01-17T11:58:47Z</time>
      </trkpt>
      <trkpt lat="45.95084" lon="6.74074">
        <ele>1365</ele>
        <time>2014-01-17T11:59:01Z</time>
      </trkpt>
      <trkpt lat="45.9508" lon="6.74095">
        <ele>1365</ele>
        <time>2014-01-17T11:59:14Z</time>
      </trkpt>
      <trkpt lat="45.95078" lon="6.74116">
        <ele>1367</ele>
        <time>2014-01-17T11:59:28Z</time>
      </trkpt>
      <trkpt lat="45.95075" lon="6.74136">
        <ele>1367</ele>
        <time>2014-01-17T11:59:40Z</time>
      </trkpt>
      <trkpt lat="45.95071" lon="6.74154">
        <ele>1369</ele>
        <time>2014-01-17T11:59:53Z</time>
      </trkpt>
      <trkpt lat="45.95069" lon="6.74161">
        <ele>1370</ele>
        <time>2014-01-17T11:59:58Z</time>
      </trkpt>
      <trkpt lat="45.95065" lon="6.74182">
        <ele>1370</ele>
        <time>2014-01-17T12:00:11Z</time>
      </trkpt>
      <trkpt lat="45.9506" lon="6.74204">
        <ele>1370</ele>
        <time>2014-01-17T12:00:24Z</time>
      </trkpt>
      <trkpt lat="45.95054" lon="6.74225">
        <ele>1371</ele>
        <time>2014-01-17T12:00:37Z</time>
      </trkpt>
      <trkpt lat="45.95047" lon="6.7425">
        <ele>1370</ele>
        <time>2014-01-17T12:00:52Z</time>
      </trkpt>
      <trkpt lat="45.95038" lon="6.74271">
        <ele>1373</ele>
        <time>2014-01-17T12:01:06Z</time>
      </trkpt>
      <trkpt lat="45.95028" lon="6.74293">
        <ele>1373</ele>
        <time>2014-01-17T12:01:21Z</time>
      </trkpt>
      <trkpt lat="45.95021" lon="6.74313">
        <ele>1372</ele>
        <time>2014-01-17T12:01:33Z</time>
      </trkpt>
      <trkpt lat="45.95012" lon="6.74337">
        <ele>1373</ele>
        <time>2014-01-17T12:01:46Z</time>
      </trkpt>
      <trkpt lat="45.95004" lon="6.74363">
        <ele>1372</ele>
        <time>2014-01-17T12:02:00Z</time>
      </trkpt>
      <trkpt lat="45.94994" lon="6.74395">
        <ele>1370</ele>
        <time>2014-01-17T12:02:14Z</time>
      </trkpt>
      <trkpt lat="45.94986" lon="6.74422">
        <ele>1368</ele>
        <time>2014-01-17T12:02:27Z</time>
      </trkpt>
      <trkpt lat="45.94976" lon="6.7447">
        <ele>1366</ele>
        <time>2014-01-17T12:02:41Z</time>
      </trkpt>
      <trkpt lat="45.94975" lon="6.74509">
        <ele>1364</ele>
        <time>2014-01-17T12:02:56Z</time>
      </trkpt>
      <trkpt lat="45.94975" lon="6.74539">
        <ele>1363</ele>
        <time>2014-01-17T12:03:08Z</time>
      </trkpt>
      <trkpt lat="45.94972" lon="6.74567">
        <ele>1362</ele>
        <time>2014-01-17T12:03:20Z</time>
      </trkpt>
      <trkpt lat="45.94969" lon="6.74597">
        <ele>1361</ele>
        <time>2014-01-17T12:03:33Z</time>
      </trkpt>
      <trkpt lat="45.94962" lon="6.74622">
        <ele>1361</ele>
        <time>2014-01-17T12:03:45Z</time>
      </trkpt>
      <trkpt lat="45.94958" lon="6.74653">
        <ele>1360</ele>
        <time>2014-01-17T12:03:58Z</time>
      </trkpt>
      <trkpt lat="45.94955" lon="6.74678">
        <ele>1360</ele>
        <time>2014-01-17T12:04:10Z</time>
      </trkpt>
      <trkpt lat="45.94955" lon="6.74709">
        <ele>1360</ele>
        <time>2014-01-17T12:04:23Z</time>
      </trkpt>
      <trkpt lat="45.94959" lon="6.74739">
        <ele>1361</ele>
        <time>2014-01-17T12:04:36Z</time>
      </trkpt>
      <trkpt lat="45.94976" lon="6.74749">
        <ele>1360</ele>
        <time>2014-01-17T12:04:48Z</time>
      </trkpt>
      <trkpt lat="45.94997" lon="6.74738">
        <ele>1361</ele>
        <time>2014-01-17T12:05:03Z</time>
      </trkpt>
      <trkpt lat="45.95015" lon="6.74736">
        <ele>1360</ele>
        <time>2014-01-17T12:05:14Z</time>
      </trkpt>
      <trkpt lat="45.95035" lon="6.74756">
        <ele>1359</ele>
        <time>2014-01-17T12:05:28Z</time>
      </trkpt>
      <trkpt lat="45.9506" lon="6.74796">
        <ele>1358</ele>
        <time>2014-01-17T12:05:41Z</time>
      </trkpt>
      <trkpt lat="45.95063" lon="6.74822">
        <ele>1356</ele>
        <time>2014-01-17T12:05:52Z</time>
      </trkpt>
      <trkpt lat="45.95066" lon="6.74854">
        <ele>1354</ele>
        <time>2014-01-17T12:06:04Z</time>
      </trkpt>
      <trkpt lat="45.95067" lon="6.74857">
        <ele>1354</ele>
        <time>2014-01-17T12:06:05Z</time>
      </trkpt>
      <trkpt lat="45.95078" lon="6.7489">
        <ele>1352</ele>
        <time>2014-01-17T12:06:18Z</time>
      </trkpt>
      <trkpt lat="45.95078" lon="6.74899">
        <ele>1352</ele>
        <time>2014-01-17T12:06:21Z</time>
      </trkpt>
      <trkpt lat="45.95077" lon="6.74931">
        <ele>1351</ele>
        <time>2014-01-17T12:06:34Z</time>
      </trkpt>
      <trkpt lat="45.95077" lon="6.74938">
        <ele>1351</ele>
        <time>2014-01-17T12:06:37Z</time>
      </trkpt>
      <trkpt lat="45.95077" lon="6.74967">
        <ele>1351</ele>
        <time>2014-01-17T12:06:49Z</time>
      </trkpt>
      <trkpt lat="45.95083" lon="6.74996">
        <ele>1352</ele>
        <time>2014-01-17T12:07:02Z</time>
      </trkpt>
      <trkpt lat="45.95094" lon="6.75025">
        <ele>1352</ele>
        <time>2014-01-17T12:07:16Z</time>
      </trkpt>
      <trkpt lat="45.95104" lon="6.75047">
        <ele>1352</ele>
        <time>2014-01-17T12:07:29Z</time>
      </trkpt>
      <trkpt lat="45.95115" lon="6.75061">
        <ele>1353</ele>
        <time>2014-01-17T12:07:41Z</time>
      </trkpt>
      <trkpt lat="45.95128" lon="6.75073">
        <ele>1354</ele>
        <time>2014-01-17T12:07:54Z</time>
      </trkpt>
      <trkpt lat="45.95143" lon="6.75089">
        <ele>1355</ele>
        <time>2014-01-17T12:08:08Z</time>
      </trkpt>
      <trkpt lat="45.95152" lon="6.75103">
        <ele>1356</ele>
        <time>2014-01-17T12:08:19Z</time>
      </trkpt>
      <trkpt lat="45.95161" lon="6.7512">
        <ele>1358</ele>
        <time>2014-01-17T12:08:33Z</time>
      </trkpt>
      <trkpt lat="45.95164" lon="6.75125">
        <ele>1360</ele>
        <time>2014-01-17T12:08:37Z</time>
      </trkpt>
      <trkpt lat="45.95175" lon="6.7514">
        <ele>1361</ele>
        <time>2014-01-17T12:08:50Z</time>
      </trkpt>
      <trkpt lat="45.95187" lon="6.7515">
        <ele>1362</ele>
        <time>2014-01-17T12:09:02Z</time>
      </trkpt>
      <trkpt lat="45.95194" lon="6.75154">
        <ele>1361</ele>
        <time>2014-01-17T12:09:18Z</time>
      </trkpt>
      <trkpt lat="45.95203" lon="6.75157">
        <ele>1362</ele>
        <time>2014-01-17T12:09:43Z</time>
      </trkpt>
      <trkpt lat="45.95221" lon="6.75175">
        <ele>1361</ele>
        <time>2014-01-17T12:09:58Z</time>
      </trkpt>
      <trkpt lat="45.95226" lon="6.75179">
        <ele>1361</ele>
        <time>2014-01-17T12:10:02Z</time>
      </trkpt>
      <trkpt lat="45.95231" lon="6.75185">
        <ele>1362</ele>
        <time>2014-01-17T12:10:07Z</time>
      </trkpt>
      <trkpt lat="45.95243" lon="6.752">
        <ele>1364</ele>
        <time>2014-01-17T12:10:19Z</time>
      </trkpt>
      <trkpt lat="45.95256" lon="6.75215">
        <ele>1363</ele>
        <time>2014-01-17T12:10:31Z</time>
      </trkpt>
      <trkpt lat="45.95266" lon="6.75234">
        <ele>1363</ele>
        <time>2014-01-17T12:10:44Z</time>
      </trkpt>
      <trkpt lat="45.95272" lon="6.75259">
        <ele>1364</ele>
        <time>2014-01-17T12:10:59Z</time>
      </trkpt>
      <trkpt lat="45.95272" lon="6.7528">
        <ele>1363</ele>
        <time>2014-01-17T12:11:09Z</time>
      </trkpt>
      <trkpt lat="45.95267" lon="6.75294">
        <ele>1366</ele>
        <time>2014-01-17T12:11:19Z</time>
      </trkpt>
      <trkpt lat="45.95259" lon="6.75312">
        <ele>1366</ele>
        <time>2014-01-17T12:11:32Z</time>
      </trkpt>
      <trkpt lat="45.95249" lon="6.75333">
        <ele>1367</ele>
        <time>2014-01-17T12:11:45Z</time>
      </trkpt>
      <trkpt lat="45.95246" lon="6.75357">
        <ele>1367</ele>
        <time>2014-01-17T12:11:57Z</time>
      </trkpt>
      <trkpt lat="45.95248" lon="6.75386">
        <ele>1368</ele>
        <time>2014-01-17T12:12:11Z</time>
      </trkpt>
      <trkpt lat="45.95246" lon="6.75413">
        <ele>1368</ele>
        <time>2014-01-17T12:12:25Z</time>
      </trkpt>
      <trkpt lat="45.9524" lon="6.75442">
        <ele>1368</ele>
        <time>2014-01-17T12:12:39Z</time>
      </trkpt>
      <trkpt lat="45.95238" lon="6.7547">
        <ele>1368</ele>
        <time>2014-01-17T12:12:52Z</time>
      </trkpt>
      <trkpt lat="45.95237" lon="6.75501">
        <ele>1368</ele>
        <time>2014-01-17T12:13:06Z</time>
      </trkpt>
      <trkpt lat="45.95231" lon="6.75529">
        <ele>1367</ele>
        <time>2014-01-17T12:13:19Z</time>
      </trkpt>
      <trkpt lat="45.95221" lon="6.75552">
        <ele>1368</ele>
        <time>2014-01-17T12:13:32Z</time>
      </trkpt>
      <trkpt lat="45.95211" lon="6.75572">
        <ele>1368</ele>
        <time>2014-01-17T12:13:44Z</time>
      </trkpt>
      <trkpt lat="45.95205" lon="6.75597">
        <ele>1367</ele>
        <time>2014-01-17T12:13:57Z</time>
      </trkpt>
      <trkpt lat="45.95205" lon="6.75623">
        <ele>1367</ele>
        <time>2014-01-17T12:14:08Z</time>
      </trkpt>
      <trkpt lat="45.9521" lon="6.75649">
        <ele>1367</ele>
        <time>2014-01-17T12:14:19Z</time>
      </trkpt>
      <trkpt lat="45.95215" lon="6.75679">
        <ele>1365</ele>
        <time>2014-01-17T12:14:32Z</time>
      </trkpt>
      <trkpt lat="45.95213" lon="6.75703">
        <ele>1366</ele>
        <time>2014-01-17T12:14:45Z</time>
      </trkpt>
      <trkpt lat="45.95202" lon="6.75722">
        <ele>1367</ele>
        <time>2014-01-17T12:14:58Z</time>
      </trkpt>
      <trkpt lat="45.95199" lon="6.75728">
        <ele>1367</ele>
        <time>2014-01-17T12:15:02Z</time>
      </trkpt>
      <trkpt lat="45.95191" lon="6.75746">
        <ele>1369</ele>
        <time>2014-01-17T12:15:15Z</time>
      </trkpt>
      <trkpt lat="45.95187" lon="6.75761">
        <ele>1371</ele>
        <time>2014-01-17T12:15:27Z</time>
      </trkpt>
      <trkpt lat="45.95186" lon="6.75768">
        <ele>1370</ele>
        <time>2014-01-17T12:15:33Z</time>
      </trkpt>
      <trkpt lat="45.95183" lon="6.75782">
        <ele>1373</ele>
        <time>2014-01-17T12:15:47Z</time>
      </trkpt>
      <trkpt lat="45.95179" lon="6.75792">
        <ele>1375</ele>
        <time>2014-01-17T12:15:57Z</time>
      </trkpt>
      <trkpt lat="45.95174" lon="6.75796">
        <ele>1377</ele>
        <time>2014-01-17T12:16:04Z</time>
      </trkpt>
      <trkpt lat="45.95173" lon="6.75797">
        <ele>1376</ele>
        <time>2014-01-17T12:16:05Z</time>
      </trkpt>
      <trkpt lat="45.95159" lon="6.75802">
        <ele>1378</ele>
        <time>2014-01-17T12:16:19Z</time>
      </trkpt>
      <trkpt lat="45.95156" lon="6.75805">
        <ele>1378</ele>
        <time>2014-01-17T12:16:22Z</time>
      </trkpt>
      <trkpt lat="45.9515" lon="6.75823">
        <ele>1380</ele>
        <time>2014-01-17T12:16:35Z</time>
      </trkpt>
      <trkpt lat="45.95141" lon="6.75839">
        <ele>1381</ele>
        <time>2014-01-17T12:16:48Z</time>
      </trkpt>
      <trkpt lat="45.9513" lon="6.75854">
        <ele>1382</ele>
        <time>2014-01-17T12:17:01Z</time>
      </trkpt>
      <trkpt lat="45.95121" lon="6.75864">
        <ele>1383</ele>
        <time>2014-01-17T12:17:12Z</time>
      </trkpt>
      <trkpt lat="45.95116" lon="6.75876">
        <ele>1385</ele>
        <time>2014-01-17T12:17:21Z</time>
      </trkpt>
      <trkpt lat="45.95108" lon="6.75894">
        <ele>1387</ele>
        <time>2014-01-17T12:17:34Z</time>
      </trkpt>
      <trkpt lat="45.95107" lon="6.75895">
        <ele>1387</ele>
        <time>2014-01-17T12:17:35Z</time>
      </trkpt>
      <trkpt lat="45.95103" lon="6.75898">
        <ele>1386</ele>
        <time>2014-01-17T12:17:40Z</time>
      </trkpt>
      <trkpt lat="45.95101" lon="6.75899">
        <ele>1388</ele>
        <time>2014-01-17T12:17:42Z</time>
      </trkpt>
      <trkpt lat="45.95093" lon="6.75907">
        <ele>1390</ele>
        <time>2014-01-17T12:17:52Z</time>
      </trkpt>
      <trkpt lat="45.95081" lon="6.75919">
        <ele>1391</ele>
        <time>2014-01-17T12:18:05Z</time>
      </trkpt>
      <trkpt lat="45.95072" lon="6.75927">
        <ele>1392</ele>
        <time>2014-01-17T12:18:15Z</time>
      </trkpt>
      <trkpt lat="45.95068" lon="6.75933">
        <ele>1394</ele>
        <time>2014-01-17T12:18:21Z</time>
      </trkpt>
      <trkpt lat="45.95067" lon="6.75938">
        <ele>1394</ele>
        <time>2014-01-17T12:18:24Z</time>
      </trkpt>
      <trkpt lat="45.95061" lon="6.75958">
        <ele>1395</ele>
        <time>2014-01-17T12:18:38Z</time>
      </trkpt>
      <trkpt lat="45.95059" lon="6.75976">
        <ele>1395</ele>
        <time>2014-01-17T12:18:51Z</time>
      </trkpt>
      <trkpt lat="45.95059" lon="6.75995">
        <ele>1395</ele>
        <time>2014-01-17T12:19:02Z</time>
      </trkpt>
      <trkpt lat="45.95058" lon="6.76014">
        <ele>1397</ele>
        <time>2014-01-17T12:19:14Z</time>
      </trkpt>
      <trkpt lat="45.95052" lon="6.76032">
        <ele>1399</ele>
        <time>2014-01-17T12:19:27Z</time>
      </trkpt>
      <trkpt lat="45.9505" lon="6.76034">
        <ele>1400</ele>
        <time>2014-01-17T12:19:29Z</time>
      </trkpt>
      <trkpt lat="45.9504" lon="6.76049">
        <ele>1401</ele>
        <time>2014-01-17T12:19:42Z</time>
      </trkpt>
      <trkpt lat="45.95036" lon="6.76069">
        <ele>1401</ele>
        <time>2014-01-17T12:19:55Z</time>
      </trkpt>
      <trkpt lat="45.95029" lon="6.76087">
        <ele>1402</ele>
        <time>2014-01-17T12:20:09Z</time>
      </trkpt>
      <trkpt lat="45.95025" lon="6.76103">
        <ele>1403</ele>
        <time>2014-01-17T12:20:21Z</time>
      </trkpt>
      <trkpt lat="45.9503" lon="6.7612">
        <ele>1404</ele>
        <time>2014-01-17T12:20:32Z</time>
      </trkpt>
      <trkpt lat="45.95036" lon="6.76137">
        <ele>1407</ele>
        <time>2014-01-17T12:20:45Z</time>
      </trkpt>
      <trkpt lat="45.95043" lon="6.76154">
        <ele>1408</ele>
        <time>2014-01-17T12:20:58Z</time>
      </trkpt>
      <trkpt lat="45.9505" lon="6.76172">
        <ele>1409</ele>
        <time>2014-01-17T12:21:12Z</time>
      </trkpt>
      <trkpt lat="45.95058" lon="6.76189">
        <ele>1410</ele>
        <time>2014-01-17T12:21:25Z</time>
      </trkpt>
      <trkpt lat="45.9506" lon="6.76191">
        <ele>1411</ele>
        <time>2014-01-17T12:21:27Z</time>
      </trkpt>
      <trkpt lat="45.95069" lon="6.76204">
        <ele>1411</ele>
        <time>2014-01-17T12:21:39Z</time>
      </trkpt>
      <trkpt lat="45.95078" lon="6.76217">
        <ele>1413</ele>
        <time>2014-01-17T12:21:52Z</time>
      </trkpt>
      <trkpt lat="45.95082" lon="6.76235">
        <ele>1414</ele>
        <time>2014-01-17T12:22:05Z</time>
      </trkpt>
      <trkpt lat="45.95081" lon="6.76242">
        <ele>1414</ele>
        <time>2014-01-17T12:22:10Z</time>
      </trkpt>
      <trkpt lat="45.95078" lon="6.76248">
        <ele>1415</ele>
        <time>2014-01-17T12:22:14Z</time>
      </trkpt>
      <trkpt lat="45.95078" lon="6.76269">
        <ele>1416</ele>
        <time>2014-01-17T12:22:27Z</time>
      </trkpt>
      <trkpt lat="45.95085" lon="6.76288">
        <ele>1417</ele>
        <time>2014-01-17T12:22:39Z</time>
      </trkpt>
      <trkpt lat="45.95092" lon="6.7631">
        <ele>1420</ele>
        <time>2014-01-17T12:22:53Z</time>
      </trkpt>
      <trkpt lat="45.951" lon="6.76331">
        <ele>1421</ele>
        <time>2014-01-17T12:23:07Z</time>
      </trkpt>
      <trkpt lat="45.95109" lon="6.76348">
        <ele>1423</ele>
        <time>2014-01-17T12:23:20Z</time>
      </trkpt>
      <trkpt lat="45.95119" lon="6.76361">
        <ele>1424</ele>
        <time>2014-01-17T12:23:33Z</time>
      </trkpt>
      <trkpt lat="45.95121" lon="6.76364">
        <ele>1426</ele>
        <time>2014-01-17T12:23:36Z</time>
      </trkpt>
      <trkpt lat="45.95129" lon="6.76381">
        <ele>1426</ele>
        <time>2014-01-17T12:23:49Z</time>
      </trkpt>
      <trkpt lat="45.95137" lon="6.76402">
        <ele>1426</ele>
        <time>2014-01-17T12:24:02Z</time>
      </trkpt>
      <trkpt lat="45.95143" lon="6.76422">
        <ele>1427</ele>
        <time>2014-01-17T12:24:16Z</time>
      </trkpt>
      <trkpt lat="45.95144" lon="6.76423">
        <ele>1428</ele>
        <time>2014-01-17T12:24:34Z</time>
      </trkpt>
      <trkpt lat="45.95144" lon="6.76423">
        <ele>1424</ele>
        <time>2014-01-17T12:25:00Z</time>
      </trkpt>
      <trkpt lat="45.95144" lon="6.76423">
        <ele>1428</ele>
        <time>2014-01-17T12:25:01Z</time>
      </trkpt>
      <trkpt lat="45.95144" lon="6.76424">
        <ele>1425</ele>
        <time>2014-01-17T12:25:21Z</time>
      </trkpt>
      <trkpt lat="45.95144" lon="6.76423">
        <ele>1428</ele>
        <time>2014-01-17T12:25:26Z</time>
      </trkpt>
      <trkpt lat="45.95145" lon="6.7642">
        <ele>1424</ele>
        <time>2014-01-17T12:25:55Z</time>
      </trkpt>
      <trkpt lat="45.95146" lon="6.7642">
        <ele>1428</ele>
        <time>2014-01-17T12:25:56Z</time>
      </trkpt>
      <trkpt lat="45.95146" lon="6.76421">
        <ele>1428</ele>
        <time>2014-01-17T12:25:57Z</time>
      </trkpt>
      <trkpt lat="45.95147" lon="6.76421">
        <ele>1427</ele>
        <time>2014-01-17T12:26:08Z</time>
      </trkpt>
      <trkpt lat="45.95147" lon="6.76422">
        <ele>1426</ele>
        <time>2014-01-17T12:26:20Z</time>
      </trkpt>
      <trkpt lat="45.95147" lon="6.76422">
        <ele>1427</ele>
        <time>2014-01-17T12:26:22Z</time>
      </trkpt>
      <trkpt lat="45.95145" lon="6.76425">
        <ele>1424</ele>
        <time>2014-01-17T12:27:57Z</time>
      </trkpt>
      <trkpt lat="45.95145" lon="6.76425">
        <ele>1428</ele>
        <time>2014-01-17T12:27:58Z</time>
      </trkpt>
      <trkpt lat="45.95145" lon="6.76425">
        <ele>1427</ele>
        <time>2014-01-17T12:27:59Z</time>
      </trkpt>
      <trkpt lat="45.95145" lon="6.76424">
        <ele>1428</ele>
        <time>2014-01-17T12:28:23Z</time>
      </trkpt>
      <trkpt lat="45.95151" lon="6.76442">
        <ele>1428</ele>
        <time>2014-01-17T12:28:35Z</time>
      </trkpt>
      <trkpt lat="45.9516" lon="6.76466">
        <ele>1427</ele>
        <time>2014-01-17T12:28:49Z</time>
      </trkpt>
      <trkpt lat="45.95175" lon="6.76487">
        <ele>1427</ele>
        <time>2014-01-17T12:29:02Z</time>
      </trkpt>
      <trkpt lat="45.95188" lon="6.76508">
        <ele>1426</ele>
        <time>2014-01-17T12:29:15Z</time>
      </trkpt>
      <trkpt lat="45.95193" lon="6.76521">
        <ele>1426</ele>
        <time>2014-01-17T12:29:22Z</time>
      </trkpt>
      <trkpt lat="45.95207" lon="6.76558">
        <ele>1424</ele>
        <time>2014-01-17T12:29:36Z</time>
      </trkpt>
      <trkpt lat="45.95215" lon="6.76576">
        <ele>1422</ele>
        <time>2014-01-17T12:29:47Z</time>
      </trkpt>
      <trkpt lat="45.95229" lon="6.76598">
        <ele>1420</ele>
        <time>2014-01-17T12:29:57Z</time>
      </trkpt>
      <trkpt lat="45.95246" lon="6.7662">
        <ele>1420</ele>
        <time>2014-01-17T12:30:13Z</time>
      </trkpt>
      <trkpt lat="45.95256" lon="6.76642">
        <ele>1420</ele>
        <time>2014-01-17T12:30:26Z</time>
      </trkpt>
      <trkpt lat="45.95264" lon="6.76661">
        <ele>1418</ele>
        <time>2014-01-17T12:30:39Z</time>
      </trkpt>
      <trkpt lat="45.95272" lon="6.76679">
        <ele>1417</ele>
        <time>2014-01-17T12:30:50Z</time>
      </trkpt>
      <trkpt lat="45.95278" lon="6.76687">
        <ele>1415</ele>
        <time>2014-01-17T12:30:55Z</time>
      </trkpt>
      <trkpt lat="45.95292" lon="6.76702">
        <ele>1415</ele>
        <time>2014-01-17T12:31:09Z</time>
      </trkpt>
      <trkpt lat="45.95306" lon="6.76715">
        <ele>1415</ele>
        <time>2014-01-17T12:31:21Z</time>
      </trkpt>
      <trkpt lat="45.95316" lon="6.76729">
        <ele>1415</ele>
        <time>2014-01-17T12:31:32Z</time>
      </trkpt>
      <trkpt lat="45.95322" lon="6.76747">
        <ele>1414</ele>
        <time>2014-01-17T12:31:44Z</time>
      </trkpt>
      <trkpt lat="45.95325" lon="6.76759">
        <ele>1414</ele>
        <time>2014-01-17T12:31:52Z</time>
      </trkpt>
      <trkpt lat="45.95333" lon="6.76776">
        <ele>1414</ele>
        <time>2014-01-17T12:32:04Z</time>
      </trkpt>
      <trkpt lat="45.9534" lon="6.7679">
        <ele>1416</ele>
        <time>2014-01-17T12:32:16Z</time>
      </trkpt>
      <trkpt lat="45.95342" lon="6.76794">
        <ele>1414</ele>
        <time>2014-01-17T12:32:38Z</time>
      </trkpt>
      <trkpt lat="45.95343" lon="6.76799">
        <ele>1411</ele>
        <time>2014-01-17T12:32:44Z</time>
      </trkpt>
      <trkpt lat="45.95344" lon="6.768">
        <ele>1417</ele>
        <time>2014-01-17T12:32:45Z</time>
      </trkpt>
      <trkpt lat="45.95344" lon="6.76801">
        <ele>1416</ele>
        <time>2014-01-17T12:32:46Z</time>
      </trkpt>
      <trkpt lat="45.95352" lon="6.7682">
        <ele>1418</ele>
        <time>2014-01-17T12:33:01Z</time>
      </trkpt>
      <trkpt lat="45.95352" lon="6.76837">
        <ele>1420</ele>
        <time>2014-01-17T12:33:13Z</time>
      </trkpt>
      <trkpt lat="45.95358" lon="6.76854">
        <ele>1421</ele>
        <time>2014-01-17T12:33:24Z</time>
      </trkpt>
      <trkpt lat="45.95362" lon="6.76863">
        <ele>1420</ele>
        <time>2014-01-17T12:33:30Z</time>
      </trkpt>
      <trkpt lat="45.95367" lon="6.76882">
        <ele>1423</ele>
        <time>2014-01-17T12:33:42Z</time>
      </trkpt>
      <trkpt lat="45.95367" lon="6.76883">
        <ele>1422</ele>
        <time>2014-01-17T12:33:43Z</time>
      </trkpt>
      <trkpt lat="45.95367" lon="6.76888">
        <ele>1423</ele>
        <time>2014-01-17T12:33:47Z</time>
      </trkpt>
      <trkpt lat="45.95369" lon="6.76906">
        <ele>1426</ele>
        <time>2014-01-17T12:34:00Z</time>
      </trkpt>
      <trkpt lat="45.95369" lon="6.76913">
        <ele>1425</ele>
        <time>2014-01-17T12:34:05Z</time>
      </trkpt>
      <trkpt lat="45.95374" lon="6.76932">
        <ele>1427</ele>
        <time>2014-01-17T12:34:17Z</time>
      </trkpt>
      <trkpt lat="45.95382" lon="6.76951">
        <ele>1426</ele>
        <time>2014-01-17T12:34:29Z</time>
      </trkpt>
      <trkpt lat="45.95387" lon="6.76969">
        <ele>1427</ele>
        <time>2014-01-17T12:34:41Z</time>
      </trkpt>
      <trkpt lat="45.95391" lon="6.76988">
        <ele>1428</ele>
        <time>2014-01-17T12:34:55Z</time>
      </trkpt>
      <trkpt lat="45.95393" lon="6.76997">
        <ele>1429</ele>
        <time>2014-01-17T12:35:04Z</time>
      </trkpt>
      <trkpt lat="45.95396" lon="6.77002">
        <ele>1431</ele>
        <time>2014-01-17T12:35:09Z</time>
      </trkpt>
      <trkpt lat="45.954" lon="6.77004">
        <ele>1433</ele>
        <time>2014-01-17T12:35:14Z</time>
      </trkpt>
      <trkpt lat="45.95402" lon="6.77007">
        <ele>1432</ele>
        <time>2014-01-17T12:35:17Z</time>
      </trkpt>
      <trkpt lat="45.95412" lon="6.77009">
        <ele>1434</ele>
        <time>2014-01-17T12:35:30Z</time>
      </trkpt>
      <trkpt lat="45.95421" lon="6.77012">
        <ele>1437</ele>
        <time>2014-01-17T12:35:41Z</time>
      </trkpt>
      <trkpt lat="45.95427" lon="6.77016">
        <ele>1437</ele>
        <time>2014-01-17T12:35:48Z</time>
      </trkpt>
      <trkpt lat="45.9544" lon="6.77017">
        <ele>1439</ele>
        <time>2014-01-17T12:36:01Z</time>
      </trkpt>
      <trkpt lat="45.95444" lon="6.77016">
        <ele>1439</ele>
        <time>2014-01-17T12:36:05Z</time>
      </trkpt>
      <trkpt lat="45.95454" lon="6.77016">
        <ele>1440</ele>
        <time>2014-01-17T12:36:17Z</time>
      </trkpt>
      <trkpt lat="45.95463" lon="6.77018">
        <ele>1444</ele>
        <time>2014-01-17T12:36:28Z</time>
      </trkpt>
      <trkpt lat="45.95464" lon="6.77019">
        <ele>1444</ele>
        <time>2014-01-17T12:36:29Z</time>
      </trkpt>
      <trkpt lat="45.95471" lon="6.77023">
        <ele>1445</ele>
        <time>2014-01-17T12:36:41Z</time>
      </trkpt>
      <trkpt lat="45.95477" lon="6.77027">
        <ele>1447</ele>
        <time>2014-01-17T12:36:53Z</time>
      </trkpt>
      <trkpt lat="45.95478" lon="6.77027">
        <ele>1445</ele>
        <time>2014-01-17T12:36:55Z</time>
      </trkpt>
      <trkpt lat="45.95489" lon="6.77031">
        <ele>1446</ele>
        <time>2014-01-17T12:37:08Z</time>
      </trkpt>
      <trkpt lat="45.95499" lon="6.77033">
        <ele>1448</ele>
        <time>2014-01-17T12:37:20Z</time>
      </trkpt>
      <trkpt lat="45.95509" lon="6.77035">
        <ele>1449</ele>
        <time>2014-01-17T12:37:31Z</time>
      </trkpt>
      <trkpt lat="45.95516" lon="6.77045">
        <ele>1450</ele>
        <time>2014-01-17T12:37:42Z</time>
      </trkpt>
      <trkpt lat="45.95521" lon="6.77055">
        <ele>1452</ele>
        <time>2014-01-17T12:37:55Z</time>
      </trkpt>
      <trkpt lat="45.95524" lon="6.77063">
        <ele>1455</ele>
        <time>2014-01-17T12:38:04Z</time>
      </trkpt>
      <trkpt lat="45.95524" lon="6.77064">
        <ele>1455</ele>
        <time>2014-01-17T12:38:05Z</time>
      </trkpt>
      <trkpt lat="45.95526" lon="6.77079">
        <ele>1458</ele>
        <time>2014-01-17T12:38:18Z</time>
      </trkpt>
      <trkpt lat="45.95526" lon="6.77082">
        <ele>1458</ele>
        <time>2014-01-17T12:38:22Z</time>
      </trkpt>
      <trkpt lat="45.95533" lon="6.77093">
        <ele>1460</ele>
        <time>2014-01-17T12:38:35Z</time>
      </trkpt>
      <trkpt lat="45.9554" lon="6.77102">
        <ele>1461</ele>
        <time>2014-01-17T12:38:46Z</time>
      </trkpt>
      <trkpt lat="45.95545" lon="6.77107">
        <ele>1462</ele>
        <time>2014-01-17T12:38:56Z</time>
      </trkpt>
      <trkpt lat="45.95551" lon="6.77113">
        <ele>1464</ele>
        <time>2014-01-17T12:39:07Z</time>
      </trkpt>
      <trkpt lat="45.95558" lon="6.7712">
        <ele>1465</ele>
        <time>2014-01-17T12:39:20Z</time>
      </trkpt>
      <trkpt lat="45.95564" lon="6.77129">
        <ele>1466</ele>
        <time>2014-01-17T12:39:33Z</time>
      </trkpt>
      <trkpt lat="45.9557" lon="6.77137">
        <ele>1468</ele>
        <time>2014-01-17T12:39:42Z</time>
      </trkpt>
      <trkpt lat="45.9558" lon="6.77143">
        <ele>1468</ele>
        <time>2014-01-17T12:39:51Z</time>
      </trkpt>
      <trkpt lat="45.95593" lon="6.7715">
        <ele>1469</ele>
        <time>2014-01-17T12:40:03Z</time>
      </trkpt>
      <trkpt lat="45.95598" lon="6.7716">
        <ele>1469</ele>
        <time>2014-01-17T12:40:14Z</time>
      </trkpt>
      <trkpt lat="45.95601" lon="6.7717">
        <ele>1471</ele>
        <time>2014-01-17T12:40:25Z</time>
      </trkpt>
      <trkpt lat="45.95601" lon="6.77171">
        <ele>1471</ele>
        <time>2014-01-17T12:40:26Z</time>
      </trkpt>
      <trkpt lat="45.95605" lon="6.77185">
        <ele>1473</ele>
        <time>2014-01-17T12:40:40Z</time>
      </trkpt>
      <trkpt lat="45.9561" lon="6.77199">
        <ele>1473</ele>
        <time>2014-01-17T12:40:52Z</time>
      </trkpt>
      <trkpt lat="45.95614" lon="6.77211">
        <ele>1474</ele>
        <time>2014-01-17T12:41:05Z</time>
      </trkpt>
      <trkpt lat="45.95615" lon="6.77225">
        <ele>1475</ele>
        <time>2014-01-17T12:41:19Z</time>
      </trkpt>
      <trkpt lat="45.95616" lon="6.77235">
        <ele>1477</ele>
        <time>2014-01-17T12:41:27Z</time>
      </trkpt>
      <trkpt lat="45.95615" lon="6.77239">
        <ele>1477</ele>
        <time>2014-01-17T12:41:30Z</time>
      </trkpt>
      <trkpt lat="45.95615" lon="6.77243">
        <ele>1477</ele>
        <time>2014-01-17T12:41:32Z</time>
      </trkpt>
      <trkpt lat="45.95614" lon="6.77251">
        <ele>1477</ele>
        <time>2014-01-17T12:41:38Z</time>
      </trkpt>
      <trkpt lat="45.9562" lon="6.77271">
        <ele>1477</ele>
        <time>2014-01-17T12:41:51Z</time>
      </trkpt>
      <trkpt lat="45.95624" lon="6.77288">
        <ele>1478</ele>
        <time>2014-01-17T12:42:04Z</time>
      </trkpt>
      <trkpt lat="45.95628" lon="6.77303">
        <ele>1480</ele>
        <time>2014-01-17T12:42:16Z</time>
      </trkpt>
      <trkpt lat="45.9563" lon="6.77314">
        <ele>1482</ele>
        <time>2014-01-17T12:42:26Z</time>
      </trkpt>
      <trkpt lat="45.95634" lon="6.77326">
        <ele>1483</ele>
        <time>2014-01-17T12:42:38Z</time>
      </trkpt>
      <trkpt lat="45.95635" lon="6.77331">
        <ele>1485</ele>
        <time>2014-01-17T12:42:43Z</time>
      </trkpt>
      <trkpt lat="45.95638" lon="6.77343">
        <ele>1485</ele>
        <time>2014-01-17T12:42:56Z</time>
      </trkpt>
      <trkpt lat="45.95638" lon="6.7735">
        <ele>1488</ele>
        <time>2014-01-17T12:43:03Z</time>
      </trkpt>
      <trkpt lat="45.95638" lon="6.77359">
        <ele>1488</ele>
        <time>2014-01-17T12:43:13Z</time>
      </trkpt>
      <trkpt lat="45.95637" lon="6.77361">
        <ele>1490</ele>
        <time>2014-01-17T12:43:15Z</time>
      </trkpt>
      <trkpt lat="45.95638" lon="6.77372">
        <ele>1492</ele>
        <time>2014-01-17T12:43:27Z</time>
      </trkpt>
      <trkpt lat="45.9564" lon="6.77384">
        <ele>1493</ele>
        <time>2014-01-17T12:43:39Z</time>
      </trkpt>
      <trkpt lat="45.95643" lon="6.77391">
        <ele>1494</ele>
        <time>2014-01-17T12:43:46Z</time>
      </trkpt>
      <trkpt lat="45.95644" lon="6.77393">
        <ele>1496</ele>
        <time>2014-01-17T12:43:49Z</time>
      </trkpt>
      <trkpt lat="45.95644" lon="6.77394">
        <ele>1493</ele>
        <time>2014-01-17T12:43:50Z</time>
      </trkpt>
      <trkpt lat="45.95645" lon="6.77395">
        <ele>1496</ele>
        <time>2014-01-17T12:43:52Z</time>
      </trkpt>
      <trkpt lat="45.95651" lon="6.77401">
        <ele>1495</ele>
        <time>2014-01-17T12:44:05Z</time>
      </trkpt>
      <trkpt lat="45.95656" lon="6.77405">
        <ele>1498</ele>
        <time>2014-01-17T12:44:12Z</time>
      </trkpt>
      <trkpt lat="45.95656" lon="6.77405">
        <ele>1496</ele>
        <time>2014-01-17T12:44:13Z</time>
      </trkpt>
      <trkpt lat="45.95666" lon="6.77409">
        <ele>1498</ele>
        <time>2014-01-17T12:44:26Z</time>
      </trkpt>
      <trkpt lat="45.95671" lon="6.77414">
        <ele>1501</ele>
        <time>2014-01-17T12:44:34Z</time>
      </trkpt>
      <trkpt lat="45.95679" lon="6.77421">
        <ele>1501</ele>
        <time>2014-01-17T12:44:45Z</time>
      </trkpt>
      <trkpt lat="45.95688" lon="6.77428">
        <ele>1502</ele>
        <time>2014-01-17T12:44:59Z</time>
      </trkpt>
      <trkpt lat="45.95694" lon="6.77431">
        <ele>1503</ele>
        <time>2014-01-17T12:45:10Z</time>
      </trkpt>
      <trkpt lat="45.95701" lon="6.77431">
        <ele>1506</ele>
        <time>2014-01-17T12:45:22Z</time>
      </trkpt>
      <trkpt lat="45.9571" lon="6.77428">
        <ele>1507</ele>
        <time>2014-01-17T12:45:35Z</time>
      </trkpt>
      <trkpt lat="45.95716" lon="6.77428">
        <ele>1507</ele>
        <time>2014-01-17T12:45:43Z</time>
      </trkpt>
      <trkpt lat="45.95723" lon="6.77429">
        <ele>1508</ele>
        <time>2014-01-17T12:45:54Z</time>
      </trkpt>
      <trkpt lat="45.95726" lon="6.7743">
        <ele>1511</ele>
        <time>2014-01-17T12:45:58Z</time>
      </trkpt>
      <trkpt lat="45.95733" lon="6.77435">
        <ele>1510</ele>
        <time>2014-01-17T12:46:09Z</time>
      </trkpt>
      <trkpt lat="45.9574" lon="6.77439">
        <ele>1513</ele>
        <time>2014-01-17T12:46:19Z</time>
      </trkpt>
      <trkpt lat="45.9575" lon="6.77445">
        <ele>1513</ele>
        <time>2014-01-17T12:46:31Z</time>
      </trkpt>
      <trkpt lat="45.9575" lon="6.77446">
        <ele>1512</ele>
        <time>2014-01-17T12:46:32Z</time>
      </trkpt>
      <trkpt lat="45.95758" lon="6.77455">
        <ele>1512</ele>
        <time>2014-01-17T12:46:44Z</time>
      </trkpt>
      <trkpt lat="45.95765" lon="6.77465">
        <ele>1514</ele>
        <time>2014-01-17T12:46:56Z</time>
      </trkpt>
      <trkpt lat="45.95772" lon="6.77478">
        <ele>1514</ele>
        <time>2014-01-17T12:47:09Z</time>
      </trkpt>
      <trkpt lat="45.95777" lon="6.7749">
        <ele>1514</ele>
        <time>2014-01-17T12:47:21Z</time>
      </trkpt>
      <trkpt lat="45.9578" lon="6.77497">
        <ele>1517</ele>
        <time>2014-01-17T12:47:27Z</time>
      </trkpt>
      <trkpt lat="45.95781" lon="6.77499">
        <ele>1514</ele>
        <time>2014-01-17T12:47:29Z</time>
      </trkpt>
      <trkpt lat="45.95786" lon="6.77508">
        <ele>1517</ele>
        <time>2014-01-17T12:47:40Z</time>
      </trkpt>
      <trkpt lat="45.95792" lon="6.77519">
        <ele>1517</ele>
        <time>2014-01-17T12:47:54Z</time>
      </trkpt>
      <trkpt lat="45.95792" lon="6.77527">
        <ele>1518</ele>
        <time>2014-01-17T12:48:01Z</time>
      </trkpt>
      <trkpt lat="45.9579" lon="6.77542">
        <ele>1519</ele>
        <time>2014-01-17T12:48:13Z</time>
      </trkpt>
      <trkpt lat="45.9579" lon="6.77553">
        <ele>1520</ele>
        <time>2014-01-17T12:48:24Z</time>
      </trkpt>
      <trkpt lat="45.95789" lon="6.77568">
        <ele>1521</ele>
        <time>2014-01-17T12:48:36Z</time>
      </trkpt>
      <trkpt lat="45.95786" lon="6.77582">
        <ele>1520</ele>
        <time>2014-01-17T12:48:47Z</time>
      </trkpt>
      <trkpt lat="45.95781" lon="6.77594">
        <ele>1521</ele>
        <time>2014-01-17T12:48:59Z</time>
      </trkpt>
      <trkpt lat="45.95778" lon="6.77607">
        <ele>1522</ele>
        <time>2014-01-17T12:49:11Z</time>
      </trkpt>
      <trkpt lat="45.95778" lon="6.77615">
        <ele>1522</ele>
        <time>2014-01-17T12:49:16Z</time>
      </trkpt>
      <trkpt lat="45.95783" lon="6.7763">
        <ele>1523</ele>
        <time>2014-01-17T12:49:29Z</time>
      </trkpt>
      <trkpt lat="45.95787" lon="6.77641">
        <ele>1525</ele>
        <time>2014-01-17T12:49:39Z</time>
      </trkpt>
      <trkpt lat="45.95789" lon="6.77646">
        <ele>1525</ele>
        <time>2014-01-17T12:49:43Z</time>
      </trkpt>
      <trkpt lat="45.95795" lon="6.77653">
        <ele>1527</ele>
        <time>2014-01-17T12:49:54Z</time>
      </trkpt>
      <trkpt lat="45.958" lon="6.7766">
        <ele>1528</ele>
        <time>2014-01-17T12:50:05Z</time>
      </trkpt>
      <trkpt lat="45.95799" lon="6.77668">
        <ele>1529</ele>
        <time>2014-01-17T12:50:17Z</time>
      </trkpt>
      <trkpt lat="45.958" lon="6.77677">
        <ele>1532</ele>
        <time>2014-01-17T12:50:27Z</time>
      </trkpt>
      <trkpt lat="45.958" lon="6.77681">
        <ele>1532</ele>
        <time>2014-01-17T12:50:38Z</time>
      </trkpt>
      <trkpt lat="45.95799" lon="6.77683">
        <ele>1532</ele>
        <time>2014-01-17T12:50:56Z</time>
      </trkpt>
      <trkpt lat="45.958" lon="6.77685">
        <ele>1532</ele>
        <time>2014-01-17T12:50:59Z</time>
      </trkpt>
      <trkpt lat="45.95806" lon="6.77691">
        <ele>1534</ele>
        <time>2014-01-17T12:51:07Z</time>
      </trkpt>
      <trkpt lat="45.95815" lon="6.77695">
        <ele>1535</ele>
        <time>2014-01-17T12:51:20Z</time>
      </trkpt>
      <trkpt lat="45.95817" lon="6.77695">
        <ele>1537</ele>
        <time>2014-01-17T12:51:23Z</time>
      </trkpt>
      <trkpt lat="45.95826" lon="6.77691">
        <ele>1539</ele>
        <time>2014-01-17T12:51:34Z</time>
      </trkpt>
      <trkpt lat="45.95832" lon="6.77688">
        <ele>1541</ele>
        <time>2014-01-17T12:51:44Z</time>
      </trkpt>
      <trkpt lat="45.95837" lon="6.77685">
        <ele>1542</ele>
        <time>2014-01-17T12:51:54Z</time>
      </trkpt>
      <trkpt lat="45.9584" lon="6.77683">
        <ele>1542</ele>
        <time>2014-01-17T12:52:00Z</time>
      </trkpt>
      <trkpt lat="45.95846" lon="6.77681">
        <ele>1545</ele>
        <time>2014-01-17T12:52:10Z</time>
      </trkpt>
      <trkpt lat="45.95853" lon="6.77675">
        <ele>1544</ele>
        <time>2014-01-17T12:52:22Z</time>
      </trkpt>
      <trkpt lat="45.95856" lon="6.77675">
        <ele>1548</ele>
        <time>2014-01-17T12:52:28Z</time>
      </trkpt>
      <trkpt lat="45.95861" lon="6.77681">
        <ele>1550</ele>
        <time>2014-01-17T12:52:40Z</time>
      </trkpt>
      <trkpt lat="45.9586" lon="6.77687">
        <ele>1551</ele>
        <time>2014-01-17T12:52:51Z</time>
      </trkpt>
      <trkpt lat="45.95858" lon="6.77695">
        <ele>1553</ele>
        <time>2014-01-17T12:53:02Z</time>
      </trkpt>
      <trkpt lat="45.95856" lon="6.77706">
        <ele>1554</ele>
        <time>2014-01-17T12:53:14Z</time>
      </trkpt>
      <trkpt lat="45.95857" lon="6.77711">
        <ele>1554</ele>
        <time>2014-01-17T12:53:27Z</time>
      </trkpt>
      <trkpt lat="45.95857" lon="6.77712">
        <ele>1556</ele>
        <time>2014-01-17T12:53:34Z</time>
      </trkpt>
      <trkpt lat="45.95856" lon="6.77726">
        <ele>1554</ele>
        <time>2014-01-17T12:53:45Z</time>
      </trkpt>
      <trkpt lat="45.95856" lon="6.77737">
        <ele>1558</ele>
        <time>2014-01-17T12:53:56Z</time>
      </trkpt>
      <trkpt lat="45.95855" lon="6.7775">
        <ele>1559</ele>
        <time>2014-01-17T12:54:08Z</time>
      </trkpt>
      <trkpt lat="45.95856" lon="6.77752">
        <ele>1557</ele>
        <time>2014-01-17T12:54:10Z</time>
      </trkpt>
      <trkpt lat="45.95858" lon="6.7776">
        <ele>1559</ele>
        <time>2014-01-17T12:54:18Z</time>
      </trkpt>
      <trkpt lat="45.95867" lon="6.77778">
        <ele>1561</ele>
        <time>2014-01-17T12:54:34Z</time>
      </trkpt>
      <trkpt lat="45.95874" lon="6.7779">
        <ele>1562</ele>
        <time>2014-01-17T12:54:47Z</time>
      </trkpt>
      <trkpt lat="45.9588" lon="6.77799">
        <ele>1564</ele>
        <time>2014-01-17T12:55:00Z</time>
      </trkpt>
      <trkpt lat="45.95887" lon="6.77804">
        <ele>1565</ele>
        <time>2014-01-17T12:55:16Z</time>
      </trkpt>
      <trkpt lat="45.95893" lon="6.77817">
        <ele>1567</ele>
        <time>2014-01-17T12:55:30Z</time>
      </trkpt>
      <trkpt lat="45.95893" lon="6.77817">
        <ele>1567</ele>
        <time>2014-01-17T12:55:31Z</time>
      </trkpt>
      <trkpt lat="45.95893" lon="6.77822">
        <ele>1568</ele>
        <time>2014-01-17T12:55:46Z</time>
      </trkpt>
      <trkpt lat="45.95894" lon="6.77823">
        <ele>1569</ele>
        <time>2014-01-17T12:56:07Z</time>
      </trkpt>
      <trkpt lat="45.95889" lon="6.77831">
        <ele>1570</ele>
        <time>2014-01-17T12:56:38Z</time>
      </trkpt>
      <trkpt lat="45.95887" lon="6.77838">
        <ele>1570</ele>
        <time>2014-01-17T12:56:46Z</time>
      </trkpt>
      <trkpt lat="45.95889" lon="6.77853">
        <ele>1572</ele>
        <time>2014-01-17T12:56:59Z</time>
      </trkpt>
      <trkpt lat="45.9589" lon="6.77854">
        <ele>1573</ele>
        <time>2014-01-17T12:57:00Z</time>
      </trkpt>
      <trkpt lat="45.95898" lon="6.77862">
        <ele>1574</ele>
        <time>2014-01-17T12:57:13Z</time>
      </trkpt>
      <trkpt lat="45.95911" lon="6.77868">
        <ele>1576</ele>
        <time>2014-01-17T12:57:29Z</time>
      </trkpt>
      <trkpt lat="45.95915" lon="6.77869">
        <ele>1577</ele>
        <time>2014-01-17T12:57:45Z</time>
      </trkpt>
      <trkpt lat="45.95924" lon="6.77871">
        <ele>1578</ele>
        <time>2014-01-17T12:58:26Z</time>
      </trkpt>
      <trkpt lat="45.95938" lon="6.77874">
        <ele>1577</ele>
        <time>2014-01-17T12:58:40Z</time>
      </trkpt>
      <trkpt lat="45.95952" lon="6.77877">
        <ele>1577</ele>
        <time>2014-01-17T12:58:53Z</time>
      </trkpt>
      <trkpt lat="45.95962" lon="6.7788">
        <ele>1577</ele>
        <time>2014-01-17T12:59:05Z</time>
      </trkpt>
      <trkpt lat="45.95967" lon="6.77882">
        <ele>1578</ele>
        <time>2014-01-17T12:59:10Z</time>
      </trkpt>
      <trkpt lat="45.95973" lon="6.77884">
        <ele>1579</ele>
        <time>2014-01-17T12:59:19Z</time>
      </trkpt>
      <trkpt lat="45.95975" lon="6.77883">
        <ele>1581</ele>
        <time>2014-01-17T12:59:21Z</time>
      </trkpt>
      <trkpt lat="45.95976" lon="6.77882">
        <ele>1581</ele>
        <time>2014-01-17T12:59:22Z</time>
      </trkpt>
      <trkpt lat="45.95981" lon="6.77873">
        <ele>1581</ele>
        <time>2014-01-17T12:59:32Z</time>
      </trkpt>
      <trkpt lat="45.95986" lon="6.77866">
        <ele>1585</ele>
        <time>2014-01-17T12:59:42Z</time>
      </trkpt>
      <trkpt lat="45.95986" lon="6.77865">
        <ele>1582</ele>
        <time>2014-01-17T12:59:43Z</time>
      </trkpt>
      <trkpt lat="45.95988" lon="6.77863">
        <ele>1583</ele>
        <time>2014-01-17T12:59:50Z</time>
      </trkpt>
      <trkpt lat="45.95995" lon="6.77856">
        <ele>1582</ele>
        <time>2014-01-17T13:00:08Z</time>
      </trkpt>
      <trkpt lat="45.95995" lon="6.77855">
        <ele>1582</ele>
        <time>2014-01-17T13:00:09Z</time>
      </trkpt>
      <trkpt lat="45.95996" lon="6.77855">
        <ele>1584</ele>
        <time>2014-01-17T13:00:10Z</time>
      </trkpt>
      <trkpt lat="45.95997" lon="6.77849">
        <ele>1585</ele>
        <time>2014-01-17T13:00:15Z</time>
      </trkpt>
      <trkpt lat="45.9599" lon="6.77838">
        <ele>1586</ele>
        <time>2014-01-17T13:00:26Z</time>
      </trkpt>
      <trkpt lat="45.95986" lon="6.77828">
        <ele>1586</ele>
        <time>2014-01-17T13:00:42Z</time>
      </trkpt>
      <trkpt lat="45.95977" lon="6.77823">
        <ele>1587</ele>
        <time>2014-01-17T13:00:54Z</time>
      </trkpt>
      <trkpt lat="45.95976" lon="6.77823">
        <ele>1587</ele>
        <time>2014-01-17T13:00:55Z</time>
      </trkpt>
      <trkpt lat="45.95964" lon="6.77815">
        <ele>1587</ele>
        <time>2014-01-17T13:01:09Z</time>
      </trkpt>
      <trkpt lat="45.95958" lon="6.77807">
        <ele>1588</ele>
        <time>2014-01-17T13:01:20Z</time>
      </trkpt>
      <trkpt lat="45.95957" lon="6.77804">
        <ele>1588</ele>
        <time>2014-01-17T13:01:38Z</time>
      </trkpt>
      <trkpt lat="45.95957" lon="6.77803">
        <ele>1589</ele>
        <time>2014-01-17T13:01:45Z</time>
      </trkpt>
      <trkpt lat="45.95956" lon="6.778">
        <ele>1587</ele>
        <time>2014-01-17T13:01:57Z</time>
      </trkpt>
      <trkpt lat="45.95955" lon="6.77798">
        <ele>1587</ele>
        <time>2014-01-17T13:01:59Z</time>
      </trkpt>
      <trkpt lat="45.95953" lon="6.77794">
        <ele>1588</ele>
        <time>2014-01-17T13:02:02Z</time>
      </trkpt>
      <trkpt lat="45.95946" lon="6.77779">
        <ele>1588</ele>
        <time>2014-01-17T13:02:15Z</time>
      </trkpt>
      <trkpt lat="45.95947" lon="6.77766">
        <ele>1587</ele>
        <time>2014-01-17T13:02:27Z</time>
      </trkpt>
      <trkpt lat="45.95949" lon="6.77751">
        <ele>1589</ele>
        <time>2014-01-17T13:02:40Z</time>
      </trkpt>
      <trkpt lat="45.95949" lon="6.7775">
        <ele>1588</ele>
        <time>2014-01-17T13:02:41Z</time>
      </trkpt>
      <trkpt lat="45.95954" lon="6.77735">
        <ele>1588</ele>
        <time>2014-01-17T13:02:55Z</time>
      </trkpt>
      <trkpt lat="45.95959" lon="6.77719">
        <ele>1587</ele>
        <time>2014-01-17T13:03:08Z</time>
      </trkpt>
      <trkpt lat="45.95961" lon="6.77702">
        <ele>1589</ele>
        <time>2014-01-17T13:03:21Z</time>
      </trkpt>
      <trkpt lat="45.95961" lon="6.77697">
        <ele>1587</ele>
        <time>2014-01-17T13:03:24Z</time>
      </trkpt>
      <trkpt lat="45.95959" lon="6.77684">
        <ele>1590</ele>
        <time>2014-01-17T13:03:33Z</time>
      </trkpt>
      <trkpt lat="45.95957" lon="6.77671">
        <ele>1591</ele>
        <time>2014-01-17T13:03:43Z</time>
      </trkpt>
      <trkpt lat="45.95957" lon="6.77669">
        <ele>1590</ele>
        <time>2014-01-17T13:03:45Z</time>
      </trkpt>
      <trkpt lat="45.95959" lon="6.77663">
        <ele>1593</ele>
        <time>2014-01-17T13:03:52Z</time>
      </trkpt>
      <trkpt lat="45.95959" lon="6.77663">
        <ele>1592</ele>
        <time>2014-01-17T13:03:53Z</time>
      </trkpt>
      <trkpt lat="45.9596" lon="6.77662">
        <ele>1591</ele>
        <time>2014-01-17T13:03:54Z</time>
      </trkpt>
      <trkpt lat="45.95964" lon="6.77655">
        <ele>1595</ele>
        <time>2014-01-17T13:04:03Z</time>
      </trkpt>
      <trkpt lat="45.95969" lon="6.77651">
        <ele>1595</ele>
        <time>2014-01-17T13:04:11Z</time>
      </trkpt>
      <trkpt lat="45.95971" lon="6.77649">
        <ele>1596</ele>
        <time>2014-01-17T13:04:17Z</time>
      </trkpt>
      <trkpt lat="45.95978" lon="6.77642">
        <ele>1595</ele>
        <time>2014-01-17T13:04:43Z</time>
      </trkpt>
      <trkpt lat="45.95985" lon="6.77633">
        <ele>1597</ele>
        <time>2014-01-17T13:04:54Z</time>
      </trkpt>
      <trkpt lat="45.95985" lon="6.77633">
        <ele>1597</ele>
        <time>2014-01-17T13:04:55Z</time>
      </trkpt>
      <trkpt lat="45.95987" lon="6.7763">
        <ele>1598</ele>
        <time>2014-01-17T13:04:58Z</time>
      </trkpt>
      <trkpt lat="45.95993" lon="6.7762">
        <ele>1600</ele>
        <time>2014-01-17T13:05:09Z</time>
      </trkpt>
      <trkpt lat="45.95999" lon="6.77612">
        <ele>1601</ele>
        <time>2014-01-17T13:05:19Z</time>
      </trkpt>
      <trkpt lat="45.95999" lon="6.77611">
        <ele>1601</ele>
        <time>2014-01-17T13:05:44Z</time>
      </trkpt>
      <trkpt lat="45.96" lon="6.77609">
        <ele>1599</ele>
        <time>2014-01-17T13:05:48Z</time>
      </trkpt>
      <trkpt lat="45.96001" lon="6.77608">
        <ele>1601</ele>
        <time>2014-01-17T13:05:50Z</time>
      </trkpt>
      <trkpt lat="45.96008" lon="6.77596">
        <ele>1604</ele>
        <time>2014-01-17T13:06:03Z</time>
      </trkpt>
      <trkpt lat="45.96011" lon="6.77589">
        <ele>1605</ele>
        <time>2014-01-17T13:06:10Z</time>
      </trkpt>
      <trkpt lat="45.96012" lon="6.77586">
        <ele>1603</ele>
        <time>2014-01-17T13:06:12Z</time>
      </trkpt>
      <trkpt lat="45.96016" lon="6.77574">
        <ele>1606</ele>
        <time>2014-01-17T13:06:24Z</time>
      </trkpt>
      <trkpt lat="45.9602" lon="6.77565">
        <ele>1607</ele>
        <time>2014-01-17T13:06:35Z</time>
      </trkpt>
      <trkpt lat="45.96024" lon="6.77558">
        <ele>1607</ele>
        <time>2014-01-17T13:06:48Z</time>
      </trkpt>
      <trkpt lat="45.9603" lon="6.77551">
        <ele>1609</ele>
        <time>2014-01-17T13:06:59Z</time>
      </trkpt>
      <trkpt lat="45.96036" lon="6.77539">
        <ele>1610</ele>
        <time>2014-01-17T13:07:11Z</time>
      </trkpt>
      <trkpt lat="45.96036" lon="6.77538">
        <ele>1609</ele>
        <time>2014-01-17T13:07:12Z</time>
      </trkpt>
      <trkpt lat="45.96037" lon="6.77527">
        <ele>1609</ele>
        <time>2014-01-17T13:07:28Z</time>
      </trkpt>
      <trkpt lat="45.9604" lon="6.77517">
        <ele>1612</ele>
        <time>2014-01-17T13:07:40Z</time>
      </trkpt>
      <trkpt lat="45.96043" lon="6.77511">
        <ele>1612</ele>
        <time>2014-01-17T13:07:53Z</time>
      </trkpt>
      <trkpt lat="45.96049" lon="6.77503">
        <ele>1612</ele>
        <time>2014-01-17T13:08:20Z</time>
      </trkpt>
      <trkpt lat="45.9605" lon="6.77502">
        <ele>1613</ele>
        <time>2014-01-17T13:08:22Z</time>
      </trkpt>
      <trkpt lat="45.96056" lon="6.77495">
        <ele>1616</ele>
        <time>2014-01-17T13:08:33Z</time>
      </trkpt>
      <trkpt lat="45.9606" lon="6.77489">
        <ele>1615</ele>
        <time>2014-01-17T13:08:42Z</time>
      </trkpt>
      <trkpt lat="45.96065" lon="6.77482">
        <ele>1619</ele>
        <time>2014-01-17T13:08:52Z</time>
      </trkpt>
      <trkpt lat="45.96071" lon="6.77473">
        <ele>1622</ele>
        <time>2014-01-17T13:09:05Z</time>
      </trkpt>
      <trkpt lat="45.96071" lon="6.77473">
        <ele>1621</ele>
        <time>2014-01-17T13:09:06Z</time>
      </trkpt>
      <trkpt lat="45.96071" lon="6.77473">
        <ele>1620</ele>
        <time>2014-01-17T13:09:08Z</time>
      </trkpt>
      <trkpt lat="45.96074" lon="6.77464">
        <ele>1621</ele>
        <time>2014-01-17T13:09:21Z</time>
      </trkpt>
      <trkpt lat="45.96075" lon="6.7746">
        <ele>1623</ele>
        <time>2014-01-17T13:09:26Z</time>
      </trkpt>
      <trkpt lat="45.96075" lon="6.77456">
        <ele>1622</ele>
        <time>2014-01-17T13:09:31Z</time>
      </trkpt>
      <trkpt lat="45.96077" lon="6.77441">
        <ele>1624</ele>
        <time>2014-01-17T13:09:44Z</time>
      </trkpt>
      <trkpt lat="45.96078" lon="6.77435">
        <ele>1626</ele>
        <time>2014-01-17T13:09:54Z</time>
      </trkpt>
      <trkpt lat="45.96078" lon="6.77434">
        <ele>1625</ele>
        <time>2014-01-17T13:10:00Z</time>
      </trkpt>
      <trkpt lat="45.9608" lon="6.77431">
        <ele>1626</ele>
        <time>2014-01-17T13:10:04Z</time>
      </trkpt>
      <trkpt lat="45.96083" lon="6.77423">
        <ele>1628</ele>
        <time>2014-01-17T13:10:15Z</time>
      </trkpt>
      <trkpt lat="45.96084" lon="6.77418">
        <ele>1629</ele>
        <time>2014-01-17T13:10:26Z</time>
      </trkpt>
      <trkpt lat="45.96086" lon="6.7741">
        <ele>1631</ele>
        <time>2014-01-17T13:10:40Z</time>
      </trkpt>
      <trkpt lat="45.96088" lon="6.77404">
        <ele>1631</ele>
        <time>2014-01-17T13:10:46Z</time>
      </trkpt>
      <trkpt lat="45.9609" lon="6.77397">
        <ele>1632</ele>
        <time>2014-01-17T13:10:57Z</time>
      </trkpt>
      <trkpt lat="45.96095" lon="6.7739">
        <ele>1634</ele>
        <time>2014-01-17T13:11:09Z</time>
      </trkpt>
      <trkpt lat="45.96098" lon="6.77386">
        <ele>1635</ele>
        <time>2014-01-17T13:11:23Z</time>
      </trkpt>
      <trkpt lat="45.96104" lon="6.77379">
        <ele>1636</ele>
        <time>2014-01-17T13:11:35Z</time>
      </trkpt>
      <trkpt lat="45.96108" lon="6.77371">
        <ele>1637</ele>
        <time>2014-01-17T13:11:45Z</time>
      </trkpt>
      <trkpt lat="45.9611" lon="6.77367">
        <ele>1636</ele>
        <time>2014-01-17T13:12:02Z</time>
      </trkpt>
      <trkpt lat="45.96115" lon="6.77358">
        <ele>1639</ele>
        <time>2014-01-17T13:12:13Z</time>
      </trkpt>
      <trkpt lat="45.96119" lon="6.77353">
        <ele>1640</ele>
        <time>2014-01-17T13:12:23Z</time>
      </trkpt>
      <trkpt lat="45.96124" lon="6.77348">
        <ele>1640</ele>
        <time>2014-01-17T13:12:34Z</time>
      </trkpt>
      <trkpt lat="45.96128" lon="6.77343">
        <ele>1641</ele>
        <time>2014-01-17T13:12:43Z</time>
      </trkpt>
      <trkpt lat="45.96134" lon="6.77332">
        <ele>1643</ele>
        <time>2014-01-17T13:12:57Z</time>
      </trkpt>
      <trkpt lat="45.96134" lon="6.7733">
        <ele>1644</ele>
        <time>2014-01-17T13:13:00Z</time>
      </trkpt>
      <trkpt lat="45.96134" lon="6.77328">
        <ele>1643</ele>
        <time>2014-01-17T13:13:04Z</time>
      </trkpt>
      <trkpt lat="45.96132" lon="6.77319">
        <ele>1642</ele>
        <time>2014-01-17T13:13:13Z</time>
      </trkpt>
      <trkpt lat="45.96132" lon="6.77319">
        <ele>1643</ele>
        <time>2014-01-17T13:13:14Z</time>
      </trkpt>
      <trkpt lat="45.96132" lon="6.77318">
        <ele>1646</ele>
        <time>2014-01-17T13:13:15Z</time>
      </trkpt>
      <trkpt lat="45.96132" lon="6.77317">
        <ele>1645</ele>
        <time>2014-01-17T13:13:16Z</time>
      </trkpt>
      <trkpt lat="45.96127" lon="6.77303">
        <ele>1645</ele>
        <time>2014-01-17T13:13:29Z</time>
      </trkpt>
      <trkpt lat="45.96124" lon="6.7729">
        <ele>1644</ele>
        <time>2014-01-17T13:13:42Z</time>
      </trkpt>
      <trkpt lat="45.96123" lon="6.77286">
        <ele>1645</ele>
        <time>2014-01-17T13:13:45Z</time>
      </trkpt>
      <trkpt lat="45.96119" lon="6.77272">
        <ele>1645</ele>
        <time>2014-01-17T13:13:56Z</time>
      </trkpt>
      <trkpt lat="45.96118" lon="6.77257">
        <ele>1645</ele>
        <time>2014-01-17T13:14:08Z</time>
      </trkpt>
      <trkpt lat="45.96117" lon="6.7724">
        <ele>1648</ele>
        <time>2014-01-17T13:14:21Z</time>
      </trkpt>
      <trkpt lat="45.96118" lon="6.77232">
        <ele>1647</ele>
        <time>2014-01-17T13:14:28Z</time>
      </trkpt>
      <trkpt lat="45.96117" lon="6.77222">
        <ele>1642</ele>
        <time>2014-01-17T13:14:40Z</time>
      </trkpt>
      <trkpt lat="45.96116" lon="6.77221">
        <ele>1649</ele>
        <time>2014-01-17T13:14:41Z</time>
      </trkpt>
      <trkpt lat="45.96115" lon="6.77221">
        <ele>1644</ele>
        <time>2014-01-17T13:14:43Z</time>
      </trkpt>
      <trkpt lat="45.96114" lon="6.77221">
        <ele>1649</ele>
        <time>2014-01-17T13:14:44Z</time>
      </trkpt>
      <trkpt lat="45.96106" lon="6.7722">
        <ele>1645</ele>
        <time>2014-01-17T13:14:54Z</time>
      </trkpt>
      <trkpt lat="45.96098" lon="6.77215">
        <ele>1647</ele>
        <time>2014-01-17T13:15:04Z</time>
      </trkpt>
      <trkpt lat="45.96097" lon="6.77214">
        <ele>1644</ele>
        <time>2014-01-17T13:15:06Z</time>
      </trkpt>
      <trkpt lat="45.96097" lon="6.77214">
        <ele>1647</ele>
        <time>2014-01-17T13:15:07Z</time>
      </trkpt>
      <trkpt lat="45.96096" lon="6.77215">
        <ele>1644</ele>
        <time>2014-01-17T13:16:16Z</time>
      </trkpt>
      <trkpt lat="45.9609" lon="6.77206">
        <ele>1645</ele>
        <time>2014-01-17T13:16:42Z</time>
      </trkpt>
      <trkpt lat="45.96089" lon="6.77204">
        <ele>1644</ele>
        <time>2014-01-17T13:16:54Z</time>
      </trkpt>
      <trkpt lat="45.96088" lon="6.77203">
        <ele>1641</ele>
        <time>2014-01-17T13:16:57Z</time>
      </trkpt>
      <trkpt lat="45.96088" lon="6.77201">
        <ele>1645</ele>
        <time>2014-01-17T13:16:58Z</time>
      </trkpt>
      <trkpt lat="45.96087" lon="6.772">
        <ele>1643</ele>
        <time>2014-01-17T13:16:59Z</time>
      </trkpt>
      <trkpt lat="45.96082" lon="6.77186">
        <ele>1644</ele>
        <time>2014-01-17T13:17:14Z</time>
      </trkpt>
      <trkpt lat="45.96078" lon="6.77176">
        <ele>1642</ele>
        <time>2014-01-17T13:17:24Z</time>
      </trkpt>
      <trkpt lat="45.96078" lon="6.77174">
        <ele>1644</ele>
        <time>2014-01-17T13:17:26Z</time>
      </trkpt>
      <trkpt lat="45.96076" lon="6.77171">
        <ele>1640</ele>
        <time>2014-01-17T13:17:33Z</time>
      </trkpt>
      <trkpt lat="45.96075" lon="6.7717">
        <ele>1643</ele>
        <time>2014-01-17T13:17:34Z</time>
      </trkpt>
      <trkpt lat="45.96072" lon="6.77163">
        <ele>1640</ele>
        <time>2014-01-17T13:17:41Z</time>
      </trkpt>
      <trkpt lat="45.9607" lon="6.7716">
        <ele>1641</ele>
        <time>2014-01-17T13:17:56Z</time>
      </trkpt>
      <trkpt lat="45.96069" lon="6.77159">
        <ele>1641</ele>
        <time>2014-01-17T13:18:39Z</time>
      </trkpt>
      <trkpt lat="45.96068" lon="6.77159">
        <ele>1639</ele>
        <time>2014-01-17T13:18:54Z</time>
      </trkpt>
      <trkpt lat="45.96068" lon="6.77159">
        <ele>1641</ele>
        <time>2014-01-17T13:18:56Z</time>
      </trkpt>
      <trkpt lat="45.96066" lon="6.77157">
        <ele>1639</ele>
        <time>2014-01-17T13:19:04Z</time>
      </trkpt>
      <trkpt lat="45.96062" lon="6.77148">
        <ele>1640</ele>
        <time>2014-01-17T13:19:14Z</time>
      </trkpt>
      <trkpt lat="45.96062" lon="6.77146">
        <ele>1637</ele>
        <time>2014-01-17T13:19:18Z</time>
      </trkpt>
      <trkpt lat="45.96062" lon="6.77146">
        <ele>1637</ele>
        <time>2014-01-17T13:19:19Z</time>
      </trkpt>
      <trkpt lat="45.96062" lon="6.77146">
        <ele>1641</ele>
        <time>2014-01-17T13:19:20Z</time>
      </trkpt>
      <trkpt lat="45.96063" lon="6.77145">
        <ele>1639</ele>
        <time>2014-01-17T13:19:24Z</time>
      </trkpt>
      <trkpt lat="45.96064" lon="6.77145">
        <ele>1636</ele>
        <time>2014-01-17T13:19:36Z</time>
      </trkpt>
      <trkpt lat="45.96064" lon="6.77144">
        <ele>1639</ele>
        <time>2014-01-17T13:19:39Z</time>
      </trkpt>
      <trkpt lat="45.96065" lon="6.77144">
        <ele>1627</ele>
        <time>2014-01-17T13:19:47Z</time>
      </trkpt>
      <trkpt lat="45.96065" lon="6.77144">
        <ele>1635</ele>
        <time>2014-01-17T13:19:48Z</time>
      </trkpt>
      <trkpt lat="45.96064" lon="6.77144">
        <ele>1638</ele>
        <time>2014-01-17T13:19:50Z</time>
      </trkpt>
      <trkpt lat="45.96064" lon="6.77145">
        <ele>1649</ele>
        <time>2014-01-17T13:19:52Z</time>
      </trkpt>
      <trkpt lat="45.96064" lon="6.77145">
        <ele>1640</ele>
        <time>2014-01-17T13:19:53Z</time>
      </trkpt>
      <trkpt lat="45.96064" lon="6.77145">
        <ele>1637</ele>
        <time>2014-01-17T13:19:59Z</time>
      </trkpt>
      <trkpt lat="45.96064" lon="6.77145">
        <ele>1640</ele>
        <time>2014-01-17T13:20:00Z</time>
      </trkpt>
      <trkpt lat="45.96064" lon="6.77145">
        <ele>1637</ele>
        <time>2014-01-17T13:20:02Z</time>
      </trkpt>
      <trkpt lat="45.96064" lon="6.77145">
        <ele>1637</ele>
        <time>2014-01-17T13:20:03Z</time>
      </trkpt>
      <trkpt lat="45.96065" lon="6.77146">
        <ele>1639</ele>
        <time>2014-01-17T13:20:06Z</time>
      </trkpt>
      <trkpt lat="45.96065" lon="6.77146">
        <ele>1638</ele>
        <time>2014-01-17T13:20:08Z</time>
      </trkpt>
      <trkpt lat="45.96066" lon="6.77146">
        <ele>1640</ele>
        <time>2014-01-17T13:20:12Z</time>
      </trkpt>
      <trkpt lat="45.96065" lon="6.77146">
        <ele>1638</ele>
        <time>2014-01-17T13:20:15Z</time>
      </trkpt>
      <trkpt lat="45.96064" lon="6.77146">
        <ele>1634</ele>
        <time>2014-01-17T13:20:44Z</time>
      </trkpt>
      <trkpt lat="45.96064" lon="6.77146">
        <ele>1639</ele>
        <time>2014-01-17T13:20:45Z</time>
      </trkpt>
      <trkpt lat="45.96064" lon="6.77146">
        <ele>1639</ele>
        <time>2014-01-17T13:20:46Z</time>
      </trkpt>
      <trkpt lat="45.96064" lon="6.77145">
        <ele>1637</ele>
        <time>2014-01-17T13:20:49Z</time>
      </trkpt>
      <trkpt lat="45.96064" lon="6.77146">
        <ele>1640</ele>
        <time>2014-01-17T13:20:51Z</time>
      </trkpt>
      <trkpt lat="45.96064" lon="6.77146">
        <ele>1640</ele>
        <time>2014-01-17T13:20:52Z</time>
      </trkpt>
      <trkpt lat="45.96064" lon="6.77145">
        <ele>1637</ele>
        <time>2014-01-17T13:20:54Z</time>
      </trkpt>
      <trkpt lat="45.96064" lon="6.77145">
        <ele>1638</ele>
        <time>2014-01-17T13:20:55Z</time>
      </trkpt>
      <trkpt lat="45.96065" lon="6.77145">
        <ele>1640</ele>
        <time>2014-01-17T13:21:25Z</time>
      </trkpt>
      <trkpt lat="45.96065" lon="6.77145">
        <ele>1639</ele>
        <time>2014-01-17T13:21:27Z</time>
      </trkpt>
      <trkpt lat="45.96064" lon="6.77144">
        <ele>1639</ele>
        <time>2014-01-17T13:22:20Z</time>
      </trkpt>
      <trkpt lat="45.96064" lon="6.77144">
        <ele>1638</ele>
        <time>2014-01-17T13:22:34Z</time>
      </trkpt>
      <trkpt lat="45.96065" lon="6.77144">
        <ele>1635</ele>
        <time>2014-01-17T13:22:44Z</time>
      </trkpt>
      <trkpt lat="45.96065" lon="6.77144">
        <ele>1638</ele>
        <time>2014-01-17T13:22:45Z</time>
      </trkpt>
      <trkpt lat="45.96064" lon="6.77145">
        <ele>1641</ele>
        <time>2014-01-17T13:22:56Z</time>
      </trkpt>
      <trkpt lat="45.96064" lon="6.77146">
        <ele>1639</ele>
        <time>2014-01-17T13:22:59Z</time>
      </trkpt>
      <trkpt lat="45.96064" lon="6.77147">
        <ele>1640</ele>
        <time>2014-01-17T13:23:28Z</time>
      </trkpt>
      <trkpt lat="45.96064" lon="6.77147">
        <ele>1637</ele>
        <time>2014-01-17T13:23:29Z</time>
      </trkpt>
      <trkpt lat="45.96064" lon="6.77146">
        <ele>1638</ele>
        <time>2014-01-17T13:23:30Z</time>
      </trkpt>
      <trkpt lat="45.96064" lon="6.77146">
        <ele>1635</ele>
        <time>2014-01-17T13:23:35Z</time>
      </trkpt>
      <trkpt lat="45.96064" lon="6.77146">
        <ele>1636</ele>
        <time>2014-01-17T13:23:36Z</time>
      </trkpt>
      <trkpt lat="45.96064" lon="6.77147">
        <ele>1642</ele>
        <time>2014-01-17T13:23:38Z</time>
      </trkpt>
      <trkpt lat="45.96064" lon="6.77147">
        <ele>1640</ele>
        <time>2014-01-17T13:23:39Z</time>
      </trkpt>
      <trkpt lat="45.96064" lon="6.77147">
        <ele>1637</ele>
        <time>2014-01-17T13:23:40Z</time>
      </trkpt>
      <trkpt lat="45.96064" lon="6.77147">
        <ele>1638</ele>
        <time>2014-01-17T13:23:41Z</time>
      </trkpt>
      <trkpt lat="45.96065" lon="6.77147">
        <ele>1635</ele>
        <time>2014-01-17T13:23:46Z</time>
      </trkpt>
      <trkpt lat="45.96065" lon="6.77146">
        <ele>1642</ele>
        <time>2014-01-17T13:23:51Z</time>
      </trkpt>
      <trkpt lat="45.96065" lon="6.77146">
        <ele>1639</ele>
        <time>2014-01-17T13:23:52Z</time>
      </trkpt>
      <trkpt lat="45.96065" lon="6.77146">
        <ele>1642</ele>
        <time>2014-01-17T13:23:53Z</time>
      </trkpt>
      <trkpt lat="45.96065" lon="6.77145">
        <ele>1638</ele>
        <time>2014-01-17T13:23:54Z</time>
      </trkpt>
      <trkpt lat="45.96065" lon="6.77145">
        <ele>1634</ele>
        <time>2014-01-17T13:24:09Z</time>
      </trkpt>
      <trkpt lat="45.96065" lon="6.77145">
        <ele>1638</ele>
        <time>2014-01-17T13:24:11Z</time>
      </trkpt>
      <trkpt lat="45.96065" lon="6.77145">
        <ele>1638</ele>
        <time>2014-01-17T13:24:12Z</time>
      </trkpt>
      <trkpt lat="45.96065" lon="6.77143">
        <ele>1638</ele>
        <time>2014-01-17T13:24:36Z</time>
      </trkpt>
      <trkpt lat="45.96065" lon="6.77143">
        <ele>1639</ele>
        <time>2014-01-17T13:24:56Z</time>
      </trkpt>
      <trkpt lat="45.96065" lon="6.77143">
        <ele>1637</ele>
        <time>2014-01-17T13:24:58Z</time>
      </trkpt>
      <trkpt lat="45.96063" lon="6.77143">
        <ele>1640</ele>
        <time>2014-01-17T13:25:38Z</time>
      </trkpt>
      <trkpt lat="45.96063" lon="6.77143">
        <ele>1638</ele>
        <time>2014-01-17T13:25:40Z</time>
      </trkpt>
      <trkpt lat="45.96064" lon="6.77145">
        <ele>1639</ele>
        <time>2014-01-17T13:26:45Z</time>
      </trkpt>
      <trkpt lat="45.96064" lon="6.77145">
        <ele>1642</ele>
        <time>2014-01-17T13:27:33Z</time>
      </trkpt>
      <trkpt lat="45.96064" lon="6.77145">
        <ele>1638</ele>
        <time>2014-01-17T13:27:40Z</time>
      </trkpt>
      <trkpt lat="45.96065" lon="6.77145">
        <ele>1641</ele>
        <time>2014-01-17T13:27:55Z</time>
      </trkpt>
      <trkpt lat="45.96064" lon="6.77146">
        <ele>1641</ele>
        <time>2014-01-17T13:29:30Z</time>
      </trkpt>
      <trkpt lat="45.96064" lon="6.77143">
        <ele>1642</ele>
        <time>2014-01-17T13:32:22Z</time>
      </trkpt>
      <trkpt lat="45.96065" lon="6.77144">
        <ele>1640</ele>
        <time>2014-01-17T13:34:35Z</time>
      </trkpt>
      <trkpt lat="45.96067" lon="6.77143">
        <ele>1638</ele>
        <time>2014-01-17T13:37:32Z</time>
      </trkpt>
      <trkpt lat="45.96065" lon="6.77143">
        <ele>1637</ele>
        <time>2014-01-17T13:38:19Z</time>
      </trkpt>
      <trkpt lat="45.96059" lon="6.7714">
        <ele>1641</ele>
        <time>2014-01-17T13:38:52Z</time>
      </trkpt>
      <trkpt lat="45.9606" lon="6.77142">
        <ele>1641</ele>
        <time>2014-01-17T13:39:17Z</time>
      </trkpt>
      <trkpt lat="45.96064" lon="6.77143">
        <ele>1641</ele>
        <time>2014-01-17T13:40:06Z</time>
      </trkpt>
      <trkpt lat="45.96062" lon="6.77138">
        <ele>1640</ele>
        <time>2014-01-17T13:40:53Z</time>
      </trkpt>
      <trkpt lat="45.96062" lon="6.77139">
        <ele>1641</ele>
        <time>2014-01-17T13:41:32Z</time>
      </trkpt>
      <trkpt lat="45.9606" lon="6.77136">
        <ele>1642</ele>
        <time>2014-01-17T13:42:17Z</time>
      </trkpt>
      <trkpt lat="45.96062" lon="6.77135">
        <ele>1638</ele>
        <time>2014-01-17T13:42:23Z</time>
      </trkpt>
      <trkpt lat="45.96059" lon="6.77132">
        <ele>1640</ele>
        <time>2014-01-17T13:42:43Z</time>
      </trkpt>
      <trkpt lat="45.96059" lon="6.77135">
        <ele>1639</ele>
        <time>2014-01-17T13:42:56Z</time>
      </trkpt>
      <trkpt lat="45.96058" lon="6.77135">
        <ele>1640</ele>
        <time>2014-01-17T13:42:58Z</time>
      </trkpt>
      <trkpt lat="45.96061" lon="6.77139">
        <ele>1638</ele>
        <time>2014-01-17T13:43:51Z</time>
      </trkpt>
      <trkpt lat="45.96061" lon="6.77139">
        <ele>1642</ele>
        <time>2014-01-17T13:43:54Z</time>
      </trkpt>
      <trkpt lat="45.96061" lon="6.77139">
        <ele>1639</ele>
        <time>2014-01-17T13:43:55Z</time>
      </trkpt>
      <trkpt lat="45.96062" lon="6.77138">
        <ele>1638</ele>
        <time>2014-01-17T13:43:56Z</time>
      </trkpt>
      <trkpt lat="45.96066" lon="6.77135">
        <ele>1639</ele>
        <time>2014-01-17T13:44:05Z</time>
      </trkpt>
      <trkpt lat="45.96071" lon="6.77135">
        <ele>1639</ele>
        <time>2014-01-17T13:44:13Z</time>
      </trkpt>
      <trkpt lat="45.96076" lon="6.77132">
        <ele>1639</ele>
        <time>2014-01-17T13:44:23Z</time>
      </trkpt>
      <trkpt lat="45.96079" lon="6.7713">
        <ele>1639</ele>
        <time>2014-01-17T13:44:32Z</time>
      </trkpt>
      <trkpt lat="45.96083" lon="6.77127">
        <ele>1641</ele>
        <time>2014-01-17T13:44:39Z</time>
      </trkpt>
      <trkpt lat="45.96087" lon="6.77126">
        <ele>1639</ele>
        <time>2014-01-17T13:44:50Z</time>
      </trkpt>
      <trkpt lat="45.96089" lon="6.77127">
        <ele>1638</ele>
        <time>2014-01-17T13:44:52Z</time>
      </trkpt>
      <trkpt lat="45.96091" lon="6.77127">
        <ele>1641</ele>
        <time>2014-01-17T13:44:59Z</time>
      </trkpt>
      <trkpt lat="45.96091" lon="6.77127">
        <ele>1640</ele>
        <time>2014-01-17T13:45:05Z</time>
      </trkpt>
      <trkpt lat="45.96094" lon="6.77126">
        <ele>1640</ele>
        <time>2014-01-17T13:45:12Z</time>
      </trkpt>
      <trkpt lat="45.96098" lon="6.77126">
        <ele>1642</ele>
        <time>2014-01-17T13:45:28Z</time>
      </trkpt>
      <trkpt lat="45.96098" lon="6.77126">
        <ele>1642</ele>
        <time>2014-01-17T13:45:29Z</time>
      </trkpt>
      <trkpt lat="45.96099" lon="6.77126">
        <ele>1642</ele>
        <time>2014-01-17T13:45:33Z</time>
      </trkpt>
      <trkpt lat="45.96101" lon="6.77127">
        <ele>1639</ele>
        <time>2014-01-17T13:45:42Z</time>
      </trkpt>
      <trkpt lat="45.96102" lon="6.77127">
        <ele>1643</ele>
        <time>2014-01-17T13:45:44Z</time>
      </trkpt>
      <trkpt lat="45.96102" lon="6.77127">
        <ele>1639</ele>
        <time>2014-01-17T13:45:45Z</time>
      </trkpt>
      <trkpt lat="45.96106" lon="6.77127">
        <ele>1640</ele>
        <time>2014-01-17T13:45:53Z</time>
      </trkpt>
      <trkpt lat="45.96112" lon="6.77128">
        <ele>1641</ele>
        <time>2014-01-17T13:46:03Z</time>
      </trkpt>
      <trkpt lat="45.96115" lon="6.77129">
        <ele>1642</ele>
        <time>2014-01-17T13:46:14Z</time>
      </trkpt>
      <trkpt lat="45.96119" lon="6.7713">
        <ele>1642</ele>
        <time>2014-01-17T13:46:21Z</time>
      </trkpt>
      <trkpt lat="45.96122" lon="6.77127">
        <ele>1643</ele>
        <time>2014-01-17T13:46:33Z</time>
      </trkpt>
      <trkpt lat="45.96124" lon="6.77124">
        <ele>1644</ele>
        <time>2014-01-17T13:46:45Z</time>
      </trkpt>
      <trkpt lat="45.96128" lon="6.77119">
        <ele>1644</ele>
        <time>2014-01-17T13:46:56Z</time>
      </trkpt>
      <trkpt lat="45.96129" lon="6.77117">
        <ele>1644</ele>
        <time>2014-01-17T13:47:08Z</time>
      </trkpt>
      <trkpt lat="45.96132" lon="6.77096">
        <ele>1644</ele>
        <time>2014-01-17T13:47:20Z</time>
      </trkpt>
      <trkpt lat="45.9613" lon="6.77076">
        <ele>1641</ele>
        <time>2014-01-17T13:47:26Z</time>
      </trkpt>
      <trkpt lat="45.96129" lon="6.77074">
        <ele>1641</ele>
        <time>2014-01-17T13:47:27Z</time>
      </trkpt>
      <trkpt lat="45.96129" lon="6.77073">
        <ele>1643</ele>
        <time>2014-01-17T13:47:29Z</time>
      </trkpt>
      <trkpt lat="45.96124" lon="6.77062">
        <ele>1644</ele>
        <time>2014-01-17T13:47:40Z</time>
      </trkpt>
      <trkpt lat="45.96118" lon="6.77045">
        <ele>1645</ele>
        <time>2014-01-17T13:47:51Z</time>
      </trkpt>
      <trkpt lat="45.96116" lon="6.77042">
        <ele>1643</ele>
        <time>2014-01-17T13:47:53Z</time>
      </trkpt>
      <trkpt lat="45.96109" lon="6.77019">
        <ele>1642</ele>
        <time>2014-01-17T13:48:06Z</time>
      </trkpt>
      <trkpt lat="45.96104" lon="6.77004">
        <ele>1640</ele>
        <time>2014-01-17T13:48:16Z</time>
      </trkpt>
      <trkpt lat="45.96101" lon="6.76993">
        <ele>1641</ele>
        <time>2014-01-17T13:48:25Z</time>
      </trkpt>
      <trkpt lat="45.96093" lon="6.7697">
        <ele>1640</ele>
        <time>2014-01-17T13:48:38Z</time>
      </trkpt>
      <trkpt lat="45.96084" lon="6.76943">
        <ele>1639</ele>
        <time>2014-01-17T13:48:53Z</time>
      </trkpt>
      <trkpt lat="45.96082" lon="6.7694">
        <ele>1640</ele>
        <time>2014-01-17T13:48:55Z</time>
      </trkpt>
      <trkpt lat="45.9607" lon="6.76925">
        <ele>1637</ele>
        <time>2014-01-17T13:49:08Z</time>
      </trkpt>
      <trkpt lat="45.96056" lon="6.76913">
        <ele>1638</ele>
        <time>2014-01-17T13:49:21Z</time>
      </trkpt>
      <trkpt lat="45.96046" lon="6.76917">
        <ele>1638</ele>
        <time>2014-01-17T13:49:37Z</time>
      </trkpt>
      <trkpt lat="45.96046" lon="6.76917">
        <ele>1635</ele>
        <time>2014-01-17T13:50:28Z</time>
      </trkpt>
      <trkpt lat="45.96034" lon="6.76922">
        <ele>1636</ele>
        <time>2014-01-17T13:50:50Z</time>
      </trkpt>
      <trkpt lat="45.96016" lon="6.76923">
        <ele>1636</ele>
        <time>2014-01-17T13:51:03Z</time>
      </trkpt>
      <trkpt lat="45.96" lon="6.76929">
        <ele>1636</ele>
        <time>2014-01-17T13:51:14Z</time>
      </trkpt>
      <trkpt lat="45.95999" lon="6.76931">
        <ele>1635</ele>
        <time>2014-01-17T13:51:33Z</time>
      </trkpt>
      <trkpt lat="45.95995" lon="6.76936">
        <ele>1634</ele>
        <time>2014-01-17T13:52:21Z</time>
      </trkpt>
      <trkpt lat="45.95993" lon="6.76938">
        <ele>1636</ele>
        <time>2014-01-17T13:52:24Z</time>
      </trkpt>
      <trkpt lat="45.95986" lon="6.76933">
        <ele>1636</ele>
        <time>2014-01-17T13:52:39Z</time>
      </trkpt>
      <trkpt lat="45.95979" lon="6.7693">
        <ele>1634</ele>
        <time>2014-01-17T13:53:30Z</time>
      </trkpt>
      <trkpt lat="45.95972" lon="6.76938">
        <ele>1633</ele>
        <time>2014-01-17T13:53:36Z</time>
      </trkpt>
      <trkpt lat="45.95959" lon="6.76945">
        <ele>1634</ele>
        <time>2014-01-17T13:53:47Z</time>
      </trkpt>
      <trkpt lat="45.95945" lon="6.76951">
        <ele>1634</ele>
        <time>2014-01-17T13:53:59Z</time>
      </trkpt>
      <trkpt lat="45.95941" lon="6.76951">
        <ele>1634</ele>
        <time>2014-01-17T13:54:02Z</time>
      </trkpt>
      <trkpt lat="45.95924" lon="6.76952">
        <ele>1635</ele>
        <time>2014-01-17T13:54:14Z</time>
      </trkpt>
      <trkpt lat="45.95919" lon="6.76956">
        <ele>1634</ele>
        <time>2014-01-17T13:54:30Z</time>
      </trkpt>
      <trkpt lat="45.95918" lon="6.7696">
        <ele>1634</ele>
        <time>2014-01-17T13:55:02Z</time>
      </trkpt>
      <trkpt lat="45.95913" lon="6.76959">
        <ele>1635</ele>
        <time>2014-01-17T13:55:48Z</time>
      </trkpt>
      <trkpt lat="45.95902" lon="6.76952">
        <ele>1634</ele>
        <time>2014-01-17T13:55:57Z</time>
      </trkpt>
      <trkpt lat="45.95892" lon="6.76938">
        <ele>1635</ele>
        <time>2014-01-17T13:56:10Z</time>
      </trkpt>
      <trkpt lat="45.95878" lon="6.76913">
        <ele>1634</ele>
        <time>2014-01-17T13:56:20Z</time>
      </trkpt>
      <trkpt lat="45.95864" lon="6.769">
        <ele>1635</ele>
        <time>2014-01-17T13:56:30Z</time>
      </trkpt>
      <trkpt lat="45.95858" lon="6.769">
        <ele>1635</ele>
        <time>2014-01-17T13:56:35Z</time>
      </trkpt>
      <trkpt lat="45.95851" lon="6.76896">
        <ele>1635</ele>
        <time>2014-01-17T13:56:40Z</time>
      </trkpt>
      <trkpt lat="45.95815" lon="6.76873">
        <ele>1632</ele>
        <time>2014-01-17T13:56:56Z</time>
      </trkpt>
      <trkpt lat="45.95809" lon="6.76867">
        <ele>1633</ele>
        <time>2014-01-17T13:57:06Z</time>
      </trkpt>
      <trkpt lat="45.95794" lon="6.76846">
        <ele>1631</ele>
        <time>2014-01-17T13:57:38Z</time>
      </trkpt>
      <trkpt lat="45.95779" lon="6.76813">
        <ele>1628</ele>
        <time>2014-01-17T13:57:50Z</time>
      </trkpt>
      <trkpt lat="45.95779" lon="6.76809">
        <ele>1627</ele>
        <time>2014-01-17T13:57:55Z</time>
      </trkpt>
      <trkpt lat="45.95787" lon="6.76788">
        <ele>1624</ele>
        <time>2014-01-17T13:58:01Z</time>
      </trkpt>
      <trkpt lat="45.95788" lon="6.76758">
        <ele>1621</ele>
        <time>2014-01-17T13:58:07Z</time>
      </trkpt>
      <trkpt lat="45.95787" lon="6.76753">
        <ele>1620</ele>
        <time>2014-01-17T13:58:08Z</time>
      </trkpt>
      <trkpt lat="45.95782" lon="6.76709">
        <ele>1619</ele>
        <time>2014-01-17T13:58:18Z</time>
      </trkpt>
      <trkpt lat="45.95785" lon="6.767">
        <ele>1617</ele>
        <time>2014-01-17T13:58:22Z</time>
      </trkpt>
      <trkpt lat="45.9579" lon="6.76677">
        <ele>1613</ele>
        <time>2014-01-17T13:58:29Z</time>
      </trkpt>
      <trkpt lat="45.95791" lon="6.76618">
        <ele>1610</ele>
        <time>2014-01-17T13:58:40Z</time>
      </trkpt>
      <trkpt lat="45.95791" lon="6.76593">
        <ele>1607</ele>
        <time>2014-01-17T13:58:46Z</time>
      </trkpt>
      <trkpt lat="45.95793" lon="6.76584">
        <ele>1607</ele>
        <time>2014-01-17T13:58:50Z</time>
      </trkpt>
      <trkpt lat="45.95796" lon="6.76578">
        <ele>1607</ele>
        <time>2014-01-17T13:58:53Z</time>
      </trkpt>
      <trkpt lat="45.95797" lon="6.76573">
        <ele>1608</ele>
        <time>2014-01-17T13:58:56Z</time>
      </trkpt>
      <trkpt lat="45.958" lon="6.76553">
        <ele>1608</ele>
        <time>2014-01-17T13:59:05Z</time>
      </trkpt>
      <trkpt lat="45.958" lon="6.7653">
        <ele>1606</ele>
        <time>2014-01-17T13:59:16Z</time>
      </trkpt>
      <trkpt lat="45.95798" lon="6.76528">
        <ele>1608</ele>
        <time>2014-01-17T13:59:18Z</time>
      </trkpt>
      <trkpt lat="45.95788" lon="6.76524">
        <ele>1609</ele>
        <time>2014-01-17T13:59:26Z</time>
      </trkpt>
      <trkpt lat="45.95786" lon="6.76523">
        <ele>1608</ele>
        <time>2014-01-17T13:59:28Z</time>
      </trkpt>
      <trkpt lat="45.95767" lon="6.76517">
        <ele>1609</ele>
        <time>2014-01-17T13:59:43Z</time>
      </trkpt>
      <trkpt lat="45.9575" lon="6.76505">
        <ele>1610</ele>
        <time>2014-01-17T13:59:56Z</time>
      </trkpt>
      <trkpt lat="45.95734" lon="6.76492">
        <ele>1607</ele>
        <time>2014-01-17T14:00:04Z</time>
      </trkpt>
      <trkpt lat="45.95726" lon="6.76468">
        <ele>1606</ele>
        <time>2014-01-17T14:00:15Z</time>
      </trkpt>
      <trkpt lat="45.9572" lon="6.76454">
        <ele>1606</ele>
        <time>2014-01-17T14:00:22Z</time>
      </trkpt>
      <trkpt lat="45.95715" lon="6.7644">
        <ele>1605</ele>
        <time>2014-01-17T14:00:26Z</time>
      </trkpt>
      <trkpt lat="45.95704" lon="6.76419">
        <ele>1604</ele>
        <time>2014-01-17T14:00:37Z</time>
      </trkpt>
      <trkpt lat="45.95693" lon="6.764">
        <ele>1603</ele>
        <time>2014-01-17T14:00:48Z</time>
      </trkpt>
      <trkpt lat="45.95675" lon="6.76378">
        <ele>1601</ele>
        <time>2014-01-17T14:01:01Z</time>
      </trkpt>
      <trkpt lat="45.95664" lon="6.76348">
        <ele>1600</ele>
        <time>2014-01-17T14:01:11Z</time>
      </trkpt>
      <trkpt lat="45.95663" lon="6.76335">
        <ele>1598</ele>
        <time>2014-01-17T14:01:18Z</time>
      </trkpt>
      <trkpt lat="45.95661" lon="6.76312">
        <ele>1600</ele>
        <time>2014-01-17T14:01:28Z</time>
      </trkpt>
      <trkpt lat="45.95659" lon="6.76301">
        <ele>1600</ele>
        <time>2014-01-17T14:01:37Z</time>
      </trkpt>
      <trkpt lat="45.95655" lon="6.76291">
        <ele>1600</ele>
        <time>2014-01-17T14:01:43Z</time>
      </trkpt>
      <trkpt lat="45.95651" lon="6.76278">
        <ele>1600</ele>
        <time>2014-01-17T14:01:50Z</time>
      </trkpt>
      <trkpt lat="45.95644" lon="6.76263">
        <ele>1601</ele>
        <time>2014-01-17T14:02:00Z</time>
      </trkpt>
      <trkpt lat="45.95642" lon="6.76258">
        <ele>1601</ele>
        <time>2014-01-17T14:02:03Z</time>
      </trkpt>
      <trkpt lat="45.95639" lon="6.76251">
        <ele>1602</ele>
        <time>2014-01-17T14:02:07Z</time>
      </trkpt>
      <trkpt lat="45.95637" lon="6.76247">
        <ele>1600</ele>
        <time>2014-01-17T14:02:09Z</time>
      </trkpt>
      <trkpt lat="45.95629" lon="6.7622">
        <ele>1602</ele>
        <time>2014-01-17T14:02:24Z</time>
      </trkpt>
      <trkpt lat="45.95628" lon="6.76217">
        <ele>1603</ele>
        <time>2014-01-17T14:02:27Z</time>
      </trkpt>
      <trkpt lat="45.95621" lon="6.76209">
        <ele>1603</ele>
        <time>2014-01-17T14:02:32Z</time>
      </trkpt>
      <trkpt lat="45.95614" lon="6.76202">
        <ele>1603</ele>
        <time>2014-01-17T14:02:39Z</time>
      </trkpt>
      <trkpt lat="45.95605" lon="6.76183">
        <ele>1603</ele>
        <time>2014-01-17T14:02:50Z</time>
      </trkpt>
      <trkpt lat="45.956" lon="6.76171">
        <ele>1603</ele>
        <time>2014-01-17T14:02:59Z</time>
      </trkpt>
      <trkpt lat="45.95597" lon="6.76165">
        <ele>1603</ele>
        <time>2014-01-17T14:03:02Z</time>
      </trkpt>
      <trkpt lat="45.95597" lon="6.76159">
        <ele>1605</ele>
        <time>2014-01-17T14:03:05Z</time>
      </trkpt>
      <trkpt lat="45.95601" lon="6.76153">
        <ele>1606</ele>
        <time>2014-01-17T14:03:13Z</time>
      </trkpt>
      <trkpt lat="45.95607" lon="6.7615">
        <ele>1605</ele>
        <time>2014-01-17T14:03:19Z</time>
      </trkpt>
      <trkpt lat="45.95615" lon="6.76146">
        <ele>1605</ele>
        <time>2014-01-17T14:03:25Z</time>
      </trkpt>
      <trkpt lat="45.95623" lon="6.76139">
        <ele>1606</ele>
        <time>2014-01-17T14:03:33Z</time>
      </trkpt>
      <trkpt lat="45.95626" lon="6.76133">
        <ele>1607</ele>
        <time>2014-01-17T14:03:37Z</time>
      </trkpt>
      <trkpt lat="45.95636" lon="6.76122">
        <ele>1607</ele>
        <time>2014-01-17T14:03:47Z</time>
      </trkpt>
      <trkpt lat="45.95639" lon="6.76107">
        <ele>1608</ele>
        <time>2014-01-17T14:03:57Z</time>
      </trkpt>
      <trkpt lat="45.95642" lon="6.76096">
        <ele>1609</ele>
        <time>2014-01-17T14:04:06Z</time>
      </trkpt>
      <trkpt lat="45.95659" lon="6.76088">
        <ele>1607</ele>
        <time>2014-01-17T14:04:17Z</time>
      </trkpt>
      <trkpt lat="45.95667" lon="6.76077">
        <ele>1607</ele>
        <time>2014-01-17T14:04:27Z</time>
      </trkpt>
      <trkpt lat="45.95672" lon="6.76072">
        <ele>1609</ele>
        <time>2014-01-17T14:04:32Z</time>
      </trkpt>
      <trkpt lat="45.95672" lon="6.76068">
        <ele>1608</ele>
        <time>2014-01-17T14:04:34Z</time>
      </trkpt>
      <trkpt lat="45.95681" lon="6.76046">
        <ele>1608</ele>
        <time>2014-01-17T14:04:46Z</time>
      </trkpt>
      <trkpt lat="45.95684" lon="6.76012">
        <ele>1606</ele>
        <time>2014-01-17T14:04:59Z</time>
      </trkpt>
      <trkpt lat="45.95684" lon="6.76007">
        <ele>1605</ele>
        <time>2014-01-17T14:05:01Z</time>
      </trkpt>
      <trkpt lat="45.95684" lon="6.76001">
        <ele>1605</ele>
        <time>2014-01-17T14:05:04Z</time>
      </trkpt>
      <trkpt lat="45.95684" lon="6.75995">
        <ele>1606</ele>
        <time>2014-01-17T14:05:08Z</time>
      </trkpt>
      <trkpt lat="45.95682" lon="6.75989">
        <ele>1607</ele>
        <time>2014-01-17T14:05:11Z</time>
      </trkpt>
      <trkpt lat="45.95685" lon="6.75973">
        <ele>1608</ele>
        <time>2014-01-17T14:05:21Z</time>
      </trkpt>
      <trkpt lat="45.95685" lon="6.7597">
        <ele>1608</ele>
        <time>2014-01-17T14:05:23Z</time>
      </trkpt>
      <trkpt lat="45.9568" lon="6.75953">
        <ele>1608</ele>
        <time>2014-01-17T14:05:35Z</time>
      </trkpt>
      <trkpt lat="45.95678" lon="6.7595">
        <ele>1608</ele>
        <time>2014-01-17T14:05:38Z</time>
      </trkpt>
      <trkpt lat="45.95664" lon="6.75935">
        <ele>1609</ele>
        <time>2014-01-17T14:05:52Z</time>
      </trkpt>
      <trkpt lat="45.95655" lon="6.75931">
        <ele>1610</ele>
        <time>2014-01-17T14:06:00Z</time>
      </trkpt>
      <trkpt lat="45.9565" lon="6.75923">
        <ele>1611</ele>
        <time>2014-01-17T14:06:05Z</time>
      </trkpt>
      <trkpt lat="45.95649" lon="6.75898">
        <ele>1611</ele>
        <time>2014-01-17T14:06:21Z</time>
      </trkpt>
      <trkpt lat="45.95646" lon="6.75885">
        <ele>1611</ele>
        <time>2014-01-17T14:06:29Z</time>
      </trkpt>
      <trkpt lat="45.95646" lon="6.7588">
        <ele>1612</ele>
        <time>2014-01-17T14:06:32Z</time>
      </trkpt>
      <trkpt lat="45.95646" lon="6.75878">
        <ele>1613</ele>
        <time>2014-01-17T14:06:34Z</time>
      </trkpt>
      <trkpt lat="45.95654" lon="6.75857">
        <ele>1612</ele>
        <time>2014-01-17T14:06:47Z</time>
      </trkpt>
      <trkpt lat="45.9566" lon="6.75841">
        <ele>1611</ele>
        <time>2014-01-17T14:06:58Z</time>
      </trkpt>
      <trkpt lat="45.95667" lon="6.75825">
        <ele>1613</ele>
        <time>2014-01-17T14:07:07Z</time>
      </trkpt>
      <trkpt lat="45.95668" lon="6.75823">
        <ele>1612</ele>
        <time>2014-01-17T14:07:09Z</time>
      </trkpt>
      <trkpt lat="45.9567" lon="6.75818">
        <ele>1613</ele>
        <time>2014-01-17T14:07:12Z</time>
      </trkpt>
      <trkpt lat="45.95672" lon="6.75799">
        <ele>1613</ele>
        <time>2014-01-17T14:07:25Z</time>
      </trkpt>
      <trkpt lat="45.95671" lon="6.75776">
        <ele>1615</ele>
        <time>2014-01-17T14:07:37Z</time>
      </trkpt>
      <trkpt lat="45.95665" lon="6.75754">
        <ele>1617</ele>
        <time>2014-01-17T14:07:51Z</time>
      </trkpt>
      <trkpt lat="45.95655" lon="6.75737">
        <ele>1617</ele>
        <time>2014-01-17T14:08:04Z</time>
      </trkpt>
      <trkpt lat="45.95648" lon="6.75724">
        <ele>1618</ele>
        <time>2014-01-17T14:08:16Z</time>
      </trkpt>
      <trkpt lat="45.95647" lon="6.75724">
        <ele>1619</ele>
        <time>2014-01-17T14:08:17Z</time>
      </trkpt>
      <trkpt lat="45.95637" lon="6.75705">
        <ele>1619</ele>
        <time>2014-01-17T14:08:32Z</time>
      </trkpt>
      <trkpt lat="45.95627" lon="6.7569">
        <ele>1619</ele>
        <time>2014-01-17T14:08:43Z</time>
      </trkpt>
      <trkpt lat="45.95621" lon="6.75668">
        <ele>1618</ele>
        <time>2014-01-17T14:08:55Z</time>
      </trkpt>
      <trkpt lat="45.95625" lon="6.75651">
        <ele>1618</ele>
        <time>2014-01-17T14:09:06Z</time>
      </trkpt>
      <trkpt lat="45.95628" lon="6.75629">
        <ele>1618</ele>
        <time>2014-01-17T14:09:18Z</time>
      </trkpt>
      <trkpt lat="45.95629" lon="6.75625">
        <ele>1618</ele>
        <time>2014-01-17T14:09:20Z</time>
      </trkpt>
      <trkpt lat="45.9563" lon="6.756">
        <ele>1618</ele>
        <time>2014-01-17T14:09:31Z</time>
      </trkpt>
      <trkpt lat="45.9563" lon="6.75596">
        <ele>1617</ele>
        <time>2014-01-17T14:09:32Z</time>
      </trkpt>
      <trkpt lat="45.95631" lon="6.75564">
        <ele>1616</ele>
        <time>2014-01-17T14:09:44Z</time>
      </trkpt>
      <trkpt lat="45.95635" lon="6.75553">
        <ele>1616</ele>
        <time>2014-01-17T14:09:50Z</time>
      </trkpt>
      <trkpt lat="45.95635" lon="6.7555">
        <ele>1615</ele>
        <time>2014-01-17T14:09:52Z</time>
      </trkpt>
      <trkpt lat="45.95637" lon="6.75545">
        <ele>1617</ele>
        <time>2014-01-17T14:09:55Z</time>
      </trkpt>
      <trkpt lat="45.95639" lon="6.75542">
        <ele>1616</ele>
        <time>2014-01-17T14:09:57Z</time>
      </trkpt>
      <trkpt lat="45.95642" lon="6.75529">
        <ele>1617</ele>
        <time>2014-01-17T14:10:04Z</time>
      </trkpt>
      <trkpt lat="45.95643" lon="6.75511">
        <ele>1617</ele>
        <time>2014-01-17T14:10:15Z</time>
      </trkpt>
      <trkpt lat="45.95644" lon="6.75494">
        <ele>1617</ele>
        <time>2014-01-17T14:10:24Z</time>
      </trkpt>
      <trkpt lat="45.95645" lon="6.75487">
        <ele>1618</ele>
        <time>2014-01-17T14:10:28Z</time>
      </trkpt>
      <trkpt lat="45.95646" lon="6.75459">
        <ele>1616</ele>
        <time>2014-01-17T14:10:40Z</time>
      </trkpt>
      <trkpt lat="45.95647" lon="6.75455">
        <ele>1617</ele>
        <time>2014-01-17T14:10:42Z</time>
      </trkpt>
      <trkpt lat="45.95651" lon="6.75437">
        <ele>1616</ele>
        <time>2014-01-17T14:10:51Z</time>
      </trkpt>
      <trkpt lat="45.95651" lon="6.75414">
        <ele>1618</ele>
        <time>2014-01-17T14:11:04Z</time>
      </trkpt>
      <trkpt lat="45.9565" lon="6.75398">
        <ele>1619</ele>
        <time>2014-01-17T14:11:17Z</time>
      </trkpt>
      <trkpt lat="45.95652" lon="6.75393">
        <ele>1619</ele>
        <time>2014-01-17T14:11:24Z</time>
      </trkpt>
      <trkpt lat="45.95653" lon="6.75387">
        <ele>1620</ele>
        <time>2014-01-17T14:11:29Z</time>
      </trkpt>
      <trkpt lat="45.95654" lon="6.75376">
        <ele>1621</ele>
        <time>2014-01-17T14:11:37Z</time>
      </trkpt>
      <trkpt lat="45.95658" lon="6.75366">
        <ele>1624</ele>
        <time>2014-01-17T14:11:47Z</time>
      </trkpt>
      <trkpt lat="45.95661" lon="6.75358">
        <ele>1626</ele>
        <time>2014-01-17T14:11:58Z</time>
      </trkpt>
      <trkpt lat="45.95668" lon="6.7535">
        <ele>1629</ele>
        <time>2014-01-17T14:12:09Z</time>
      </trkpt>
      <trkpt lat="45.95677" lon="6.75344">
        <ele>1629</ele>
        <time>2014-01-17T14:12:19Z</time>
      </trkpt>
      <trkpt lat="45.95688" lon="6.75333">
        <ele>1630</ele>
        <time>2014-01-17T14:12:33Z</time>
      </trkpt>
      <trkpt lat="45.95695" lon="6.75327">
        <ele>1632</ele>
        <time>2014-01-17T14:12:44Z</time>
      </trkpt>
      <trkpt lat="45.95698" lon="6.75325">
        <ele>1631</ele>
        <time>2014-01-17T14:12:47Z</time>
      </trkpt>
      <trkpt lat="45.95699" lon="6.75323">
        <ele>1632</ele>
        <time>2014-01-17T14:12:49Z</time>
      </trkpt>
      <trkpt lat="45.95705" lon="6.75311">
        <ele>1633</ele>
        <time>2014-01-17T14:13:00Z</time>
      </trkpt>
      <trkpt lat="45.95709" lon="6.75301">
        <ele>1633</ele>
        <time>2014-01-17T14:13:11Z</time>
      </trkpt>
      <trkpt lat="45.95711" lon="6.75293">
        <ele>1636</ele>
        <time>2014-01-17T14:13:21Z</time>
      </trkpt>
      <trkpt lat="45.95719" lon="6.75287">
        <ele>1637</ele>
        <time>2014-01-17T14:13:31Z</time>
      </trkpt>
      <trkpt lat="45.95721" lon="6.75279">
        <ele>1640</ele>
        <time>2014-01-17T14:13:40Z</time>
      </trkpt>
      <trkpt lat="45.95719" lon="6.75269">
        <ele>1642</ele>
        <time>2014-01-17T14:13:49Z</time>
      </trkpt>
      <trkpt lat="45.95725" lon="6.75267">
        <ele>1643</ele>
        <time>2014-01-17T14:13:59Z</time>
      </trkpt>
      <trkpt lat="45.95723" lon="6.75258">
        <ele>1644</ele>
        <time>2014-01-17T14:14:09Z</time>
      </trkpt>
      <trkpt lat="45.95731" lon="6.7525">
        <ele>1645</ele>
        <time>2014-01-17T14:14:28Z</time>
      </trkpt>
      <trkpt lat="45.95738" lon="6.75238">
        <ele>1646</ele>
        <time>2014-01-17T14:14:40Z</time>
      </trkpt>
      <trkpt lat="45.95743" lon="6.75229">
        <ele>1648</ele>
        <time>2014-01-17T14:14:50Z</time>
      </trkpt>
      <trkpt lat="45.95747" lon="6.75222">
        <ele>1648</ele>
        <time>2014-01-17T14:14:59Z</time>
      </trkpt>
      <trkpt lat="45.95753" lon="6.75215">
        <ele>1651</ele>
        <time>2014-01-17T14:15:10Z</time>
      </trkpt>
      <trkpt lat="45.95762" lon="6.75207">
        <ele>1651</ele>
        <time>2014-01-17T14:15:25Z</time>
      </trkpt>
      <trkpt lat="45.95767" lon="6.75196">
        <ele>1652</ele>
        <time>2014-01-17T14:15:35Z</time>
      </trkpt>
      <trkpt lat="45.95774" lon="6.75187">
        <ele>1654</ele>
        <time>2014-01-17T14:15:47Z</time>
      </trkpt>
      <trkpt lat="45.95778" lon="6.75179">
        <ele>1655</ele>
        <time>2014-01-17T14:15:56Z</time>
      </trkpt>
      <trkpt lat="45.95783" lon="6.75169">
        <ele>1656</ele>
        <time>2014-01-17T14:16:07Z</time>
      </trkpt>
      <trkpt lat="45.95788" lon="6.75158">
        <ele>1656</ele>
        <time>2014-01-17T14:16:17Z</time>
      </trkpt>
      <trkpt lat="45.95795" lon="6.75148">
        <ele>1656</ele>
        <time>2014-01-17T14:16:27Z</time>
      </trkpt>
      <trkpt lat="45.958" lon="6.75138">
        <ele>1656</ele>
        <time>2014-01-17T14:16:36Z</time>
      </trkpt>
      <trkpt lat="45.95805" lon="6.75125">
        <ele>1657</ele>
        <time>2014-01-17T14:16:46Z</time>
      </trkpt>
      <trkpt lat="45.95809" lon="6.75129">
        <ele>1657</ele>
        <time>2014-01-17T14:17:04Z</time>
      </trkpt>
      <trkpt lat="45.95796" lon="6.75148">
        <ele>1656</ele>
        <time>2014-01-17T14:17:15Z</time>
      </trkpt>
      <trkpt lat="45.95792" lon="6.7515">
        <ele>1656</ele>
        <time>2014-01-17T14:17:17Z</time>
      </trkpt>
      <trkpt lat="45.95787" lon="6.75146">
        <ele>1656</ele>
        <time>2014-01-17T14:17:28Z</time>
      </trkpt>
      <trkpt lat="45.95789" lon="6.75146">
        <ele>1655</ele>
        <time>2014-01-17T14:17:42Z</time>
      </trkpt>
      <trkpt lat="45.95791" lon="6.75147">
        <ele>1656</ele>
        <time>2014-01-17T14:17:45Z</time>
      </trkpt>
      <trkpt lat="45.95792" lon="6.75147">
        <ele>1653</ele>
        <time>2014-01-17T14:17:46Z</time>
      </trkpt>
      <trkpt lat="45.95792" lon="6.75147">
        <ele>1657</ele>
        <time>2014-01-17T14:17:47Z</time>
      </trkpt>
      <trkpt lat="45.95799" lon="6.7515">
        <ele>1656</ele>
        <time>2014-01-17T14:18:06Z</time>
      </trkpt>
      <trkpt lat="45.95789" lon="6.75139">
        <ele>1655</ele>
        <time>2014-01-17T14:18:33Z</time>
      </trkpt>
      <trkpt lat="45.95796" lon="6.75142">
        <ele>1655</ele>
        <time>2014-01-17T14:19:37Z</time>
      </trkpt>
      <trkpt lat="45.95781" lon="6.75137">
        <ele>1653</ele>
        <time>2014-01-17T14:20:12Z</time>
      </trkpt>
      <trkpt lat="45.95764" lon="6.75119">
        <ele>1649</ele>
        <time>2014-01-17T14:20:16Z</time>
      </trkpt>
      <trkpt lat="45.95742" lon="6.75137">
        <ele>1648</ele>
        <time>2014-01-17T14:20:18Z</time>
      </trkpt>
      <trkpt lat="45.95736" lon="6.75127">
        <ele>1645</ele>
        <time>2014-01-17T14:20:21Z</time>
      </trkpt>
      <trkpt lat="45.95727" lon="6.75113">
        <ele>1643</ele>
        <time>2014-01-17T14:20:24Z</time>
      </trkpt>
      <trkpt lat="45.95722" lon="6.75106">
        <ele>1640</ele>
        <time>2014-01-17T14:20:26Z</time>
      </trkpt>
      <trkpt lat="45.95713" lon="6.751">
        <ele>1638</ele>
        <time>2014-01-17T14:20:30Z</time>
      </trkpt>
      <trkpt lat="45.95695" lon="6.75093">
        <ele>1634</ele>
        <time>2014-01-17T14:20:39Z</time>
      </trkpt>
      <trkpt lat="45.95682" lon="6.75099">
        <ele>1631</ele>
        <time>2014-01-17T14:20:47Z</time>
      </trkpt>
      <trkpt lat="45.9568" lon="6.75102">
        <ele>1631</ele>
        <time>2014-01-17T14:20:49Z</time>
      </trkpt>
      <trkpt lat="45.95601" lon="6.75048">
        <ele>1627</ele>
        <time>2014-01-17T14:20:55Z</time>
      </trkpt>
      <trkpt lat="45.95634" lon="6.75089">
        <ele>1627</ele>
        <time>2014-01-17T14:20:56Z</time>
      </trkpt>
      <trkpt lat="45.95629" lon="6.75081">
        <ele>1624</ele>
        <time>2014-01-17T14:20:58Z</time>
      </trkpt>
      <trkpt lat="45.95625" lon="6.75076">
        <ele>1622</ele>
        <time>2014-01-17T14:21:01Z</time>
      </trkpt>
      <trkpt lat="45.95619" lon="6.75069">
        <ele>1621</ele>
        <time>2014-01-17T14:21:06Z</time>
      </trkpt>
      <trkpt lat="45.95613" lon="6.75061">
        <ele>1619</ele>
        <time>2014-01-17T14:21:08Z</time>
      </trkpt>
      <trkpt lat="45.95604" lon="6.75051">
        <ele>1615</ele>
        <time>2014-01-17T14:21:11Z</time>
      </trkpt>
      <trkpt lat="45.95624" lon="6.74986">
        <ele>1612</ele>
        <time>2014-01-17T14:21:14Z</time>
      </trkpt>
      <trkpt lat="45.95624" lon="6.74986">
        <ele>1610</ele>
        <time>2014-01-17T14:21:16Z</time>
      </trkpt>
      <trkpt lat="45.95626" lon="6.74972">
        <ele>1608</ele>
        <time>2014-01-17T14:21:20Z</time>
      </trkpt>
      <trkpt lat="45.95628" lon="6.74962">
        <ele>1606</ele>
        <time>2014-01-17T14:21:22Z</time>
      </trkpt>
      <trkpt lat="45.95615" lon="6.74921">
        <ele>1601</ele>
        <time>2014-01-17T14:21:25Z</time>
      </trkpt>
      <trkpt lat="45.95609" lon="6.74909">
        <ele>1598</ele>
        <time>2014-01-17T14:21:28Z</time>
      </trkpt>
      <trkpt lat="45.95608" lon="6.74902">
        <ele>1598</ele>
        <time>2014-01-17T14:21:29Z</time>
      </trkpt>
      <trkpt lat="45.95608" lon="6.74893">
        <ele>1595</ele>
        <time>2014-01-17T14:21:32Z</time>
      </trkpt>
      <trkpt lat="45.95608" lon="6.74893">
        <ele>1594</ele>
        <time>2014-01-17T14:21:35Z</time>
      </trkpt>
      <trkpt lat="45.95608" lon="6.74893">
        <ele>1596</ele>
        <time>2014-01-17T14:21:37Z</time>
      </trkpt>
      <trkpt lat="45.9558" lon="6.74879">
        <ele>1593</ele>
        <time>2014-01-17T14:21:49Z</time>
      </trkpt>
      <trkpt lat="45.95579" lon="6.74878">
        <ele>1592</ele>
        <time>2014-01-17T14:21:58Z</time>
      </trkpt>
      <trkpt lat="45.95581" lon="6.74875">
        <ele>1592</ele>
        <time>2014-01-17T14:22:08Z</time>
      </trkpt>
      <trkpt lat="45.9558" lon="6.74863">
        <ele>1590</ele>
        <time>2014-01-17T14:22:13Z</time>
      </trkpt>
      <trkpt lat="45.95577" lon="6.74861">
        <ele>1590</ele>
        <time>2014-01-17T14:22:14Z</time>
      </trkpt>
      <trkpt lat="45.95574" lon="6.74844">
        <ele>1585</ele>
        <time>2014-01-17T14:22:18Z</time>
      </trkpt>
      <trkpt lat="45.95571" lon="6.74827">
        <ele>1583</ele>
        <time>2014-01-17T14:22:21Z</time>
      </trkpt>
      <trkpt lat="45.95564" lon="6.74806">
        <ele>1580</ele>
        <time>2014-01-17T14:22:25Z</time>
      </trkpt>
      <trkpt lat="45.95563" lon="6.74801">
        <ele>1576</ele>
        <time>2014-01-17T14:22:27Z</time>
      </trkpt>
      <trkpt lat="45.95565" lon="6.74802">
        <ele>1577</ele>
        <time>2014-01-17T14:22:28Z</time>
      </trkpt>
      <trkpt lat="45.95568" lon="6.74802">
        <ele>1576</ele>
        <time>2014-01-17T14:22:29Z</time>
      </trkpt>
      <trkpt lat="45.95569" lon="6.74797">
        <ele>1576</ele>
        <time>2014-01-17T14:22:31Z</time>
      </trkpt>
      <trkpt lat="45.95593" lon="6.74721">
        <ele>1571</ele>
        <time>2014-01-17T14:22:37Z</time>
      </trkpt>
      <trkpt lat="45.9558" lon="6.74789">
        <ele>1568</ele>
        <time>2014-01-17T14:22:40Z</time>
      </trkpt>
      <trkpt lat="45.95584" lon="6.74785">
        <ele>1564</ele>
        <time>2014-01-17T14:22:42Z</time>
      </trkpt>
      <trkpt lat="45.95592" lon="6.7472">
        <ele>1557</ele>
        <time>2014-01-17T14:22:44Z</time>
      </trkpt>
      <trkpt lat="45.95591" lon="6.74718">
        <ele>1557</ele>
        <time>2014-01-17T14:22:46Z</time>
      </trkpt>
      <trkpt lat="45.95589" lon="6.74713">
        <ele>1549</ele>
        <time>2014-01-17T14:22:49Z</time>
      </trkpt>
      <trkpt lat="45.95589" lon="6.74713">
        <ele>1553</ele>
        <time>2014-01-17T14:22:50Z</time>
      </trkpt>
      <trkpt lat="45.95589" lon="6.74713">
        <ele>1553</ele>
        <time>2014-01-17T14:22:52Z</time>
      </trkpt>
      <trkpt lat="45.95589" lon="6.74713">
        <ele>1551</ele>
        <time>2014-01-17T14:22:54Z</time>
      </trkpt>
      <trkpt lat="45.95589" lon="6.74713">
        <ele>1548</ele>
        <time>2014-01-17T14:22:56Z</time>
      </trkpt>
      <trkpt lat="45.95588" lon="6.74702">
        <ele>1547</ele>
        <time>2014-01-17T14:23:07Z</time>
      </trkpt>
      <trkpt lat="45.95587" lon="6.747">
        <ele>1545</ele>
        <time>2014-01-17T14:23:10Z</time>
      </trkpt>
      <trkpt lat="45.95588" lon="6.74676">
        <ele>1544</ele>
        <time>2014-01-17T14:23:24Z</time>
      </trkpt>
      <trkpt lat="45.95569" lon="6.74646">
        <ele>1540</ele>
        <time>2014-01-17T14:23:28Z</time>
      </trkpt>
      <trkpt lat="45.95564" lon="6.7464">
        <ele>1540</ele>
        <time>2014-01-17T14:23:29Z</time>
      </trkpt>
      <trkpt lat="45.9556" lon="6.74635">
        <ele>1538</ele>
        <time>2014-01-17T14:23:30Z</time>
      </trkpt>
      <trkpt lat="45.95555" lon="6.74629">
        <ele>1537</ele>
        <time>2014-01-17T14:23:36Z</time>
      </trkpt>
      <trkpt lat="45.95555" lon="6.74629">
        <ele>1537</ele>
        <time>2014-01-17T14:23:38Z</time>
      </trkpt>
      <trkpt lat="45.95541" lon="6.74603">
        <ele>1535</ele>
        <time>2014-01-17T14:23:44Z</time>
      </trkpt>
      <trkpt lat="45.95543" lon="6.74588">
        <ele>1532</ele>
        <time>2014-01-17T14:23:50Z</time>
      </trkpt>
      <trkpt lat="45.95544" lon="6.74589">
        <ele>1532</ele>
        <time>2014-01-17T14:23:58Z</time>
      </trkpt>
      <trkpt lat="45.95547" lon="6.74568">
        <ele>1528</ele>
        <time>2014-01-17T14:24:04Z</time>
      </trkpt>
      <trkpt lat="45.95537" lon="6.74559">
        <ele>1524</ele>
        <time>2014-01-17T14:24:07Z</time>
      </trkpt>
      <trkpt lat="45.9555" lon="6.74508">
        <ele>1520</ele>
        <time>2014-01-17T14:24:10Z</time>
      </trkpt>
      <trkpt lat="45.95547" lon="6.74506">
        <ele>1519</ele>
        <time>2014-01-17T14:24:11Z</time>
      </trkpt>
      <trkpt lat="45.95538" lon="6.745">
        <ele>1509</ele>
        <time>2014-01-17T14:24:15Z</time>
      </trkpt>
      <trkpt lat="45.95538" lon="6.745">
        <ele>1515</ele>
        <time>2014-01-17T14:24:16Z</time>
      </trkpt>
      <trkpt lat="45.95538" lon="6.745">
        <ele>1512</ele>
        <time>2014-01-17T14:24:25Z</time>
      </trkpt>
      <trkpt lat="45.95538" lon="6.745">
        <ele>1512</ele>
        <time>2014-01-17T14:25:03Z</time>
      </trkpt>
      <trkpt lat="45.95538" lon="6.745">
        <ele>1509</ele>
        <time>2014-01-17T14:25:41Z</time>
      </trkpt>
      <trkpt lat="45.95538" lon="6.745">
        <ele>1513</ele>
        <time>2014-01-17T14:25:42Z</time>
      </trkpt>
      <trkpt lat="45.95538" lon="6.745">
        <ele>1512</ele>
        <time>2014-01-17T14:25:51Z</time>
      </trkpt>
      <trkpt lat="45.95527" lon="6.74514">
        <ele>1508</ele>
        <time>2014-01-17T14:25:56Z</time>
      </trkpt>
      <trkpt lat="45.95515" lon="6.74488">
        <ele>1503</ele>
        <time>2014-01-17T14:26:01Z</time>
      </trkpt>
      <trkpt lat="45.95509" lon="6.74487">
        <ele>1503</ele>
        <time>2014-01-17T14:26:03Z</time>
      </trkpt>
      <trkpt lat="45.95509" lon="6.74487">
        <ele>1502</ele>
        <time>2014-01-17T14:26:11Z</time>
      </trkpt>
      <trkpt lat="45.95491" lon="6.74499">
        <ele>1499</ele>
        <time>2014-01-17T14:26:16Z</time>
      </trkpt>
      <trkpt lat="45.95482" lon="6.74506">
        <ele>1495</ele>
        <time>2014-01-17T14:26:19Z</time>
      </trkpt>
      <trkpt lat="45.95474" lon="6.74512">
        <ele>1493</ele>
        <time>2014-01-17T14:26:21Z</time>
      </trkpt>
      <trkpt lat="45.95461" lon="6.74519">
        <ele>1488</ele>
        <time>2014-01-17T14:26:25Z</time>
      </trkpt>
      <trkpt lat="45.95456" lon="6.74522">
        <ele>1487</ele>
        <time>2014-01-17T14:26:27Z</time>
      </trkpt>
      <trkpt lat="45.95453" lon="6.74523">
        <ele>1487</ele>
        <time>2014-01-17T14:26:36Z</time>
      </trkpt>
      <trkpt lat="45.95453" lon="6.74523">
        <ele>1485</ele>
        <time>2014-01-17T14:26:38Z</time>
      </trkpt>
      <trkpt lat="45.95444" lon="6.74526">
        <ele>1485</ele>
        <time>2014-01-17T14:26:42Z</time>
      </trkpt>
      <trkpt lat="45.95436" lon="6.74529">
        <ele>1483</ele>
        <time>2014-01-17T14:26:44Z</time>
      </trkpt>
      <trkpt lat="45.95417" lon="6.74533">
        <ele>1479</ele>
        <time>2014-01-17T14:26:48Z</time>
      </trkpt>
      <trkpt lat="45.95402" lon="6.74539">
        <ele>1477</ele>
        <time>2014-01-17T14:26:51Z</time>
      </trkpt>
      <trkpt lat="45.95404" lon="6.74539">
        <ele>1476</ele>
        <time>2014-01-17T14:27:02Z</time>
      </trkpt>
      <trkpt lat="45.95404" lon="6.74539">
        <ele>1476</ele>
        <time>2014-01-17T14:27:04Z</time>
      </trkpt>
      <trkpt lat="45.95388" lon="6.74546">
        <ele>1471</ele>
        <time>2014-01-17T14:27:11Z</time>
      </trkpt>
      <trkpt lat="45.95388" lon="6.74546">
        <ele>1441</ele>
        <time>2014-01-17T14:27:13Z</time>
      </trkpt>
      <trkpt lat="45.95388" lon="6.74546">
        <ele>1472</ele>
        <time>2014-01-17T14:27:14Z</time>
      </trkpt>
      <trkpt lat="45.95388" lon="6.74546">
        <ele>1467</ele>
        <time>2014-01-17T14:27:15Z</time>
      </trkpt>
      <trkpt lat="45.95388" lon="6.74546">
        <ele>1466</ele>
        <time>2014-01-17T14:27:25Z</time>
      </trkpt>
      <trkpt lat="45.95352" lon="6.74508">
        <ele>1463</ele>
        <time>2014-01-17T14:27:30Z</time>
      </trkpt>
      <trkpt lat="45.9533" lon="6.7448">
        <ele>1459</ele>
        <time>2014-01-17T14:27:40Z</time>
      </trkpt>
      <trkpt lat="45.95282" lon="6.74451">
        <ele>1455</ele>
        <time>2014-01-17T14:27:52Z</time>
      </trkpt>
      <trkpt lat="45.95279" lon="6.7444">
        <ele>1452</ele>
        <time>2014-01-17T14:27:54Z</time>
      </trkpt>
      <trkpt lat="45.95263" lon="6.74448">
        <ele>1453</ele>
        <time>2014-01-17T14:28:00Z</time>
      </trkpt>
      <trkpt lat="45.95262" lon="6.74448">
        <ele>1453</ele>
        <time>2014-01-17T14:28:02Z</time>
      </trkpt>
      <trkpt lat="45.95259" lon="6.74431">
        <ele>1448</ele>
        <time>2014-01-17T14:28:07Z</time>
      </trkpt>
      <trkpt lat="45.95276" lon="6.74416">
        <ele>1447</ele>
        <time>2014-01-17T14:28:11Z</time>
      </trkpt>
      <trkpt lat="45.95238" lon="6.74332">
        <ele>1443</ele>
        <time>2014-01-17T14:28:16Z</time>
      </trkpt>
      <trkpt lat="45.95236" lon="6.74332">
        <ele>1438</ele>
        <time>2014-01-17T14:28:20Z</time>
      </trkpt>
      <trkpt lat="45.95233" lon="6.74332">
        <ele>1437</ele>
        <time>2014-01-17T14:28:25Z</time>
      </trkpt>
      <trkpt lat="45.95219" lon="6.74333">
        <ele>1432</ele>
        <time>2014-01-17T14:28:29Z</time>
      </trkpt>
      <trkpt lat="45.95214" lon="6.74332">
        <ele>1430</ele>
        <time>2014-01-17T14:28:31Z</time>
      </trkpt>
      <trkpt lat="45.952" lon="6.74329">
        <ele>1427</ele>
        <time>2014-01-17T14:28:34Z</time>
      </trkpt>
      <trkpt lat="45.95174" lon="6.74339">
        <ele>1426</ele>
        <time>2014-01-17T14:28:36Z</time>
      </trkpt>
      <trkpt lat="45.95166" lon="6.74349">
        <ele>1423</ele>
        <time>2014-01-17T14:28:38Z</time>
      </trkpt>
      <trkpt lat="45.95159" lon="6.74358">
        <ele>1420</ele>
        <time>2014-01-17T14:28:41Z</time>
      </trkpt>
      <trkpt lat="45.95148" lon="6.74367">
        <ele>1418</ele>
        <time>2014-01-17T14:28:52Z</time>
      </trkpt>
      <trkpt lat="45.95144" lon="6.74369">
        <ele>1418</ele>
        <time>2014-01-17T14:29:00Z</time>
      </trkpt>
      <trkpt lat="45.95144" lon="6.74369">
        <ele>1418</ele>
        <time>2014-01-17T14:29:01Z</time>
      </trkpt>
      <trkpt lat="45.95147" lon="6.74368">
        <ele>1414</ele>
        <time>2014-01-17T14:29:05Z</time>
      </trkpt>
      <trkpt lat="45.95135" lon="6.74373">
        <ele>1411</ele>
        <time>2014-01-17T14:29:09Z</time>
      </trkpt>
      <trkpt lat="45.95128" lon="6.74298">
        <ele>1407</ele>
        <time>2014-01-17T14:29:13Z</time>
      </trkpt>
      <trkpt lat="45.95128" lon="6.74298">
        <ele>1402</ele>
        <time>2014-01-17T14:29:17Z</time>
      </trkpt>
      <trkpt lat="45.95128" lon="6.74298">
        <ele>1403</ele>
        <time>2014-01-17T14:29:19Z</time>
      </trkpt>
      <trkpt lat="45.95128" lon="6.74298">
        <ele>1402</ele>
        <time>2014-01-17T14:29:22Z</time>
      </trkpt>
      <trkpt lat="45.95128" lon="6.74298">
        <ele>1401</ele>
        <time>2014-01-17T14:29:27Z</time>
      </trkpt>
      <trkpt lat="45.95128" lon="6.74297">
        <ele>1396</ele>
        <time>2014-01-17T14:29:28Z</time>
      </trkpt>
      <trkpt lat="45.95138" lon="6.7428">
        <ele>1393</ele>
        <time>2014-01-17T14:29:32Z</time>
      </trkpt>
      <trkpt lat="45.9514" lon="6.74277">
        <ele>1393</ele>
        <time>2014-01-17T14:29:33Z</time>
      </trkpt>
      <trkpt lat="45.95142" lon="6.74274">
        <ele>1391</ele>
        <time>2014-01-17T14:29:34Z</time>
      </trkpt>
      <trkpt lat="45.95144" lon="6.74271">
        <ele>1390</ele>
        <time>2014-01-17T14:29:42Z</time>
      </trkpt>
      <trkpt lat="45.95144" lon="6.74271">
        <ele>1390</ele>
        <time>2014-01-17T14:29:58Z</time>
      </trkpt>
      <trkpt lat="45.95121" lon="6.74269">
        <ele>1387</ele>
        <time>2014-01-17T14:30:03Z</time>
      </trkpt>
      <trkpt lat="45.95111" lon="6.74248">
        <ele>1383</ele>
        <time>2014-01-17T14:30:06Z</time>
      </trkpt>
      <trkpt lat="45.95107" lon="6.74239">
        <ele>1380</ele>
        <time>2014-01-17T14:30:08Z</time>
      </trkpt>
      <trkpt lat="45.9511" lon="6.74225">
        <ele>1377</ele>
        <time>2014-01-17T14:30:10Z</time>
      </trkpt>
      <trkpt lat="45.95108" lon="6.74225">
        <ele>1377</ele>
        <time>2014-01-17T14:30:11Z</time>
      </trkpt>
      <trkpt lat="45.95094" lon="6.74213">
        <ele>1372</ele>
        <time>2014-01-17T14:30:15Z</time>
      </trkpt>
      <trkpt lat="45.95092" lon="6.74211">
        <ele>1372</ele>
        <time>2014-01-17T14:30:16Z</time>
      </trkpt>
      <trkpt lat="45.9509" lon="6.74209">
        <ele>1373</ele>
        <time>2014-01-17T14:30:20Z</time>
      </trkpt>
      <trkpt lat="45.95083" lon="6.74132">
        <ele>1368</ele>
        <time>2014-01-17T14:30:31Z</time>
      </trkpt>
      <trkpt lat="45.95081" lon="6.74128">
        <ele>1365</ele>
        <time>2014-01-17T14:30:33Z</time>
      </trkpt>
      <trkpt lat="45.95081" lon="6.74128">
        <ele>1365</ele>
        <time>2014-01-17T14:30:34Z</time>
      </trkpt>
      <trkpt lat="45.95081" lon="6.74128">
        <ele>1365</ele>
        <time>2014-01-17T14:30:35Z</time>
      </trkpt>
      <trkpt lat="45.9508" lon="6.74125">
        <ele>1364</ele>
        <time>2014-01-17T14:30:47Z</time>
      </trkpt>
      <trkpt lat="45.95079" lon="6.74103">
        <ele>1361</ele>
        <time>2014-01-17T14:30:52Z</time>
      </trkpt>
      <trkpt lat="45.95079" lon="6.74103">
        <ele>1361</ele>
        <time>2014-01-17T14:30:53Z</time>
      </trkpt>
      <trkpt lat="45.95084" lon="6.74078">
        <ele>1360</ele>
        <time>2014-01-17T14:30:56Z</time>
      </trkpt>
      <trkpt lat="45.95087" lon="6.74062">
        <ele>1360</ele>
        <time>2014-01-17T14:31:02Z</time>
      </trkpt>
      <trkpt lat="45.9509" lon="6.74021">
        <ele>1359</ele>
        <time>2014-01-17T14:31:14Z</time>
      </trkpt>
      <trkpt lat="45.95086" lon="6.74001">
        <ele>1357</ele>
        <time>2014-01-17T14:31:26Z</time>
      </trkpt>
      <trkpt lat="45.95086" lon="6.74001">
        <ele>1358</ele>
        <time>2014-01-17T14:31:51Z</time>
      </trkpt>
      <trkpt lat="45.95086" lon="6.74001">
        <ele>1358</ele>
        <time>2014-01-17T14:31:53Z</time>
      </trkpt>
      <trkpt lat="45.95086" lon="6.74001">
        <ele>1358</ele>
        <time>2014-01-17T14:32:14Z</time>
      </trkpt>
      <trkpt lat="45.95086" lon="6.74001">
        <ele>1358</ele>
        <time>2014-01-17T14:32:50Z</time>
      </trkpt>
      <trkpt lat="45.95086" lon="6.74001">
        <ele>1358</ele>
        <time>2014-01-17T14:33:13Z</time>
      </trkpt>
      <trkpt lat="45.95086" lon="6.74001">
        <ele>1358</ele>
        <time>2014-01-17T14:33:17Z</time>
      </trkpt>
      <trkpt lat="45.95086" lon="6.74001">
        <ele>1356</ele>
        <time>2014-01-17T14:33:32Z</time>
      </trkpt>
      <trkpt lat="45.95109" lon="6.7395">
        <ele>1355</ele>
        <time>2014-01-17T14:33:44Z</time>
      </trkpt>
      <trkpt lat="45.95109" lon="6.7395">
        <ele>1354</ele>
        <time>2014-01-17T14:33:53Z</time>
      </trkpt>
      <trkpt lat="45.95106" lon="6.73967">
        <ele>1353</ele>
        <time>2014-01-17T14:34:05Z</time>
      </trkpt>
      <trkpt lat="45.95106" lon="6.73967">
        <ele>1353</ele>
        <time>2014-01-17T14:34:09Z</time>
      </trkpt>
      <trkpt lat="45.95106" lon="6.73967">
        <ele>1353</ele>
        <time>2014-01-17T14:34:20Z</time>
      </trkpt>
      <trkpt lat="45.95088" lon="6.7389">
        <ele>1353</ele>
        <time>2014-01-17T14:34:33Z</time>
      </trkpt>
      <trkpt lat="45.9509" lon="6.73891">
        <ele>1349</ele>
        <time>2014-01-17T14:34:40Z</time>
      </trkpt>
      <trkpt lat="45.9509" lon="6.73891">
        <ele>1353</ele>
        <time>2014-01-17T14:34:42Z</time>
      </trkpt>
      <trkpt lat="45.9509" lon="6.73891">
        <ele>1353</ele>
        <time>2014-01-17T14:34:43Z</time>
      </trkpt>
      <trkpt lat="45.95096" lon="6.7389">
        <ele>1353</ele>
        <time>2014-01-17T14:35:37Z</time>
      </trkpt>
      <trkpt lat="45.95092" lon="6.73891">
        <ele>1353</ele>
        <time>2014-01-17T14:35:53Z</time>
      </trkpt>
      <trkpt lat="45.95091" lon="6.73891">
        <ele>1353</ele>
        <time>2014-01-17T14:36:13Z</time>
      </trkpt>
      <trkpt lat="45.95093" lon="6.73895">
        <ele>1354</ele>
        <time>2014-01-17T14:36:33Z</time>
      </trkpt>
      <trkpt lat="45.95093" lon="6.73895">
        <ele>1354</ele>
        <time>2014-01-17T14:36:35Z</time>
      </trkpt>
    </trkseg>
  </trk>
</gpx>